^^
B2 Weather Station Historical Data
Daily Summary for January 03, 2018 Units:  Both    English   Metric
« Previous Day
Next Day »
Daily Weekly Monthly Yearly Custom
  High: Low: Average:
Temperature: 17.0 °F /  -8.3 °C 1.4 °F /  -17 °C 10.6 °F /  -11.9 °C
Dew Point: 13.6 °F /  -10.2 °C -3.9 °F /  -19.9 °C 5.4 °F /  -14.8 °C
Humidity: 88 % 72 % 79 %
Wind Speed: 17.3 mph /  27.8 km/h - 9.3 mph /  15 km/h
Wind Gust: 17.3 mph /  27.8 km/h - -
Wind:- - West
Pressure: 30.27 in /  1024.9 hPa 30.05 in /  1017.5 hPa -
Precipitation: 0.04 in /  1.02 mm    
Historical Graphs
 
 
Tabular Data for January 03, 2018
Time Temperature Dew Point Pressure Wind Wind Speed Wind Gust Humidity Rainfall Rate (Hourly) solar Conditions
00:01 5.7 °F /  -14.6 °C -0.2 °F /  -17.9 °C 30.19 in /  1022.2 hPa SSW 6.9 mph /  11.1 km/h 6.9 mph /  11.1 km/h 76 % 0.00 in /  0 mm 0.0 W/m2 CLR
00:07 5.8 °F /  -14.6 °C -0.1 °F /  -17.8 °C 30.19 in /  1022.2 hPa SSW 6.9 mph /  11.1 km/h 6.9 mph /  11.1 km/h 76 % 0.00 in /  0 mm 0.0 W/m2 CLR
00:08 5.8 °F /  -14.6 °C -0.1 °F /  -17.8 °C 30.19 in /  1022.2 hPa SSW 8.1 mph /  13 km/h 8.1 mph /  13 km/h 76 % 0.00 in /  0 mm 0.0 W/m2 CLR
00:13 5.9 °F /  -14.5 °C 0.0 °F /  -17.8 °C 30.18 in /  1021.9 hPa WSW 9.2 mph /  14.8 km/h 9.2 mph /  14.8 km/h 76 % 0.00 in /  0 mm 0.0 W/m2 CLR
00:16 5.9 °F /  -14.5 °C 0.0 °F /  -17.8 °C 30.18 in /  1021.9 hPa SSW 5.8 mph /  9.3 km/h 5.8 mph /  9.3 km/h 76 % 0.00 in /  0 mm 0.0 W/m2 CLR
00:21 6.0 °F /  -14.4 °C 0.1 °F /  -17.7 °C 30.18 in /  1021.9 hPa SSW 6.9 mph /  11.1 km/h 6.9 mph /  11.1 km/h 76 % 0.00 in /  0 mm 0.0 W/m2 CLR
00:22 6.0 °F /  -14.4 °C 0.1 °F /  -17.7 °C 30.18 in /  1021.9 hPa SSW 12.0 mph /  19.3 km/h 12.0 mph /  19.3 km/h 76 % 0.00 in /  0 mm 0.0 W/m2 CLR
00:25 6.1 °F /  -14.4 °C 0.2 °F /  -17.7 °C 30.18 in /  1021.9 hPa SW 6.9 mph /  11.1 km/h 6.9 mph /  11.1 km/h 76 % 0.00 in /  0 mm 0.0 W/m2 CLR
00:28 6.1 °F /  -14.4 °C 0.2 °F /  -17.7 °C 30.17 in /  1021.6 hPa SW 10.4 mph /  16.7 km/h 10.4 mph /  16.7 km/h 76 % 0.00 in /  0 mm 0.0 W/m2 CLR
00:33 6.3 °F /  -14.3 °C 0.3 °F /  -17.6 °C 30.17 in /  1021.6 hPa SSW 11.5 mph /  18.5 km/h 11.5 mph /  18.5 km/h 76 % 0.00 in /  0 mm 0.0 W/m2 CLR
00:38 6.5 °F /  -14.2 °C 0.5 °F /  -17.5 °C 30.17 in /  1021.6 hPa SSW 11.5 mph /  18.5 km/h 11.5 mph /  18.5 km/h 76 % 0.00 in /  0 mm 0.0 W/m2 CLR
00:42 6.6 °F /  -14.1 °C 0.6 °F /  -17.4 °C 30.17 in /  1021.6 hPa SSW 11.5 mph /  18.5 km/h 11.5 mph /  18.5 km/h 76 % 0.00 in /  0 mm 0.0 W/m2 CLR
00:44 6.7 °F /  -14.1 °C 0.7 °F /  -17.4 °C 30.17 in /  1021.6 hPa SSW 12.0 mph /  19.3 km/h 12.0 mph /  19.3 km/h 76 % 0.00 in /  0 mm 0.0 W/m2 CLR
00:49 6.9 °F /  -13.9 °C 0.9 °F /  -17.3 °C 30.16 in /  1021.2 hPa SSW 6.9 mph /  11.1 km/h 6.9 mph /  11.1 km/h 76 % 0.00 in /  0 mm 0.0 W/m2 CLR
00:50 6.9 °F /  -13.9 °C 0.9 °F /  -17.3 °C 30.16 in /  1021.2 hPa SW 10.4 mph /  16.7 km/h 10.4 mph /  16.7 km/h 76 % 0.00 in /  0 mm 0.0 W/m2 CLR
00:55 7.1 °F /  -13.8 °C 1.1 °F /  -17.2 °C 30.16 in /  1021.2 hPa SW 11.5 mph /  18.5 km/h 11.5 mph /  18.5 km/h 76 % 0.00 in /  0 mm 0.0 W/m2 CLR
00:56 7.2 °F /  -13.8 °C 1.2 °F /  -17.1 °C 30.16 in /  1021.2 hPa SW 11.5 mph /  18.5 km/h 11.5 mph /  18.5 km/h 76 % 0.00 in /  0 mm 0.0 W/m2 CLR
00:57 7.1 °F /  -13.8 °C 0.8 °F /  -17.3 °C 30.16 in /  1021.2 hPa SSW 9.2 mph /  14.8 km/h 9.2 mph /  14.8 km/h 75 % 0.00 in /  0 mm 0.0 W/m2 CLR
01:01 7.3 °F /  -13.7 °C 1.0 °F /  -17.2 °C 30.16 in /  1021.2 hPa SW 11.5 mph /  18.5 km/h 11.5 mph /  18.5 km/h 75 % 0.00 in /  0 mm 0.0 W/m2 CLR
01:04 7.3 °F /  -13.7 °C 1.0 °F /  -17.2 °C 30.16 in /  1021.2 hPa SSW 11.5 mph /  18.5 km/h 11.5 mph /  18.5 km/h 75 % 0.00 in /  0 mm 0.0 W/m2 CLR
01:06 7.4 °F /  -13.7 °C 1.1 °F /  -17.2 °C 30.15 in /  1020.9 hPa SSW 11.5 mph /  18.5 km/h 11.5 mph /  18.5 km/h 75 % 0.00 in /  0 mm 0.0 W/m2 CLR
01:10 7.6 °F /  -13.6 °C 1.3 °F /  -17.1 °C 30.15 in /  1020.9 hPa SSW 11.5 mph /  18.5 km/h 11.5 mph /  18.5 km/h 75 % 0.00 in /  0 mm 0.0 W/m2 CLR
01:12 7.6 °F /  -13.6 °C 1.3 °F /  -17.1 °C 30.15 in /  1020.9 hPa SSW 11.5 mph /  18.5 km/h 11.5 mph /  18.5 km/h 75 % 0.00 in /  0 mm 0.0 W/m2 CLR
01:15 7.7 °F /  -13.5 °C 1.4 °F /  -17 °C 30.14 in /  1020.5 hPa SW 11.5 mph /  18.5 km/h 11.5 mph /  18.5 km/h 75 % 0.00 in /  0 mm 0.0 W/m2 CLR
01:18 7.9 °F /  -13.4 °C 1.6 °F /  -16.9 °C 30.14 in /  1020.5 hPa South 9.2 mph /  14.8 km/h 9.2 mph /  14.8 km/h 75 % 0.00 in /  0 mm 0.0 W/m2 CLR
01:22 8.0 °F /  -13.3 °C 1.7 °F /  -16.8 °C 30.14 in /  1020.5 hPa SSW 11.5 mph /  18.5 km/h 11.5 mph /  18.5 km/h 75 % 0.00 in /  0 mm 0.0 W/m2 CLR
01:24 8.1 °F /  -13.3 °C 1.8 °F /  -16.8 °C 30.14 in /  1020.5 hPa South 11.5 mph /  18.5 km/h 11.5 mph /  18.5 km/h 75 % 0.00 in /  0 mm 0.0 W/m2 CLR
01:29 8.2 °F /  -13.2 °C 1.9 °F /  -16.7 °C 30.14 in /  1020.5 hPa SSW 9.2 mph /  14.8 km/h 9.2 mph /  14.8 km/h 75 % 0.00 in /  0 mm 0.0 W/m2 CLR
01:31 8.3 °F /  -13.2 °C 2.0 °F /  -16.7 °C 30.14 in /  1020.5 hPa SSW 12.7 mph /  20.4 km/h 12.7 mph /  20.4 km/h 75 % 0.00 in /  0 mm 0.0 W/m2 CLR
01:32 8.3 °F /  -13.2 °C 2.0 °F /  -16.7 °C 30.14 in /  1020.5 hPa North 12.7 mph /  20.4 km/h 12.7 mph /  20.4 km/h 75 % 0.00 in /  0 mm 0.0 W/m2 CLR
01:37 8.4 °F /  -13.1 °C 1.8 °F /  -16.8 °C 30.14 in /  1020.5 hPa SSW 11.5 mph /  18.5 km/h 11.5 mph /  18.5 km/h 74 % 0.00 in /  0 mm 0.0 W/m2 CLR
01:42 8.5 °F /  -13.1 °C 1.9 °F /  -16.7 °C 30.14 in /  1020.5 hPa SSW 16.1 mph /  25.9 km/h 16.1 mph /  25.9 km/h 74 % 0.00 in /  0 mm 0.0 W/m2 CLR
01:45 8.6 °F /  -13 °C 2.0 °F /  -16.7 °C 30.14 in /  1020.5 hPa SSW 8.1 mph /  13 km/h 8.1 mph /  13 km/h 74 % 0.00 in /  0 mm 0.0 W/m2 CLR
01:48 8.6 °F /  -13 °C 2.0 °F /  -16.7 °C 30.14 in /  1020.5 hPa SSW 11.5 mph /  18.5 km/h 11.5 mph /  18.5 km/h 74 % 0.00 in /  0 mm 0.0 W/m2 CLR
01:50 8.6 °F /  -13 °C 2.0 °F /  -16.7 °C 30.14 in /  1020.5 hPa WSW 11.0 mph /  17.7 km/h 11.0 mph /  17.7 km/h 74 % 0.00 in /  0 mm 0.0 W/m2 CLR
01:59 8.9 °F /  -12.8 °C 2.3 °F /  -16.5 °C 30.13 in /  1020.2 hPa SSW 10.4 mph /  16.7 km/h 10.4 mph /  16.7 km/h 74 % 0.00 in /  0 mm 0.0 W/m2 CLR
02:04 8.9 °F /  -12.8 °C 2.3 °F /  -16.5 °C 30.13 in /  1020.2 hPa SW 11.5 mph /  18.5 km/h 11.5 mph /  18.5 km/h 74 % 0.00 in /  0 mm 0.0 W/m2 CLR
02:05 8.9 °F /  -12.8 °C 2.3 °F /  -16.5 °C 30.13 in /  1020.2 hPa SW 9.2 mph /  14.8 km/h 9.2 mph /  14.8 km/h 74 % 0.00 in /  0 mm 0.0 W/m2 CLR
02:10 8.9 °F /  -12.8 °C 2.3 °F /  -16.5 °C 30.13 in /  1020.2 hPa SW 6.9 mph /  11.1 km/h 6.9 mph /  11.1 km/h 74 % 0.00 in /  0 mm 0.0 W/m2 CLR
02:11 9.0 °F /  -12.8 °C 2.4 °F /  -16.4 °C 30.13 in /  1020.2 hPa SSW 6.9 mph /  11.1 km/h 6.9 mph /  11.1 km/h 74 % 0.00 in /  0 mm 0.0 W/m2 CLR
02:16 9.0 °F /  -12.8 °C 2.7 °F /  -16.3 °C 30.13 in /  1020.2 hPa SSW 5.8 mph /  9.3 km/h 5.8 mph /  9.3 km/h 75 % 0.00 in /  0 mm 0.0 W/m2 CLR
02:18 9.1 °F /  -12.7 °C 2.8 °F /  -16.2 °C 30.13 in /  1020.2 hPa SSW 11.5 mph /  18.5 km/h 11.5 mph /  18.5 km/h 75 % 0.00 in /  0 mm 0.0 W/m2 CLR
02:23 9.2 °F /  -12.7 °C 2.9 °F /  -16.2 °C 30.12 in /  1019.9 hPa SSW 11.5 mph /  18.5 km/h 11.5 mph /  18.5 km/h 75 % 0.00 in /  0 mm 0.0 W/m2 CLR
02:30 9.3 °F /  -12.6 °C 3.0 °F /  -16.1 °C 30.12 in /  1019.9 hPa SW 8.1 mph /  13 km/h 8.1 mph /  13 km/h 75 % 0.00 in /  0 mm 0.0 W/m2 CLR
02:33 9.3 °F /  -12.6 °C 3.0 °F /  -16.1 °C 30.12 in /  1019.9 hPa SSW 8.1 mph /  13 km/h 8.1 mph /  13 km/h 75 % 0.00 in /  0 mm 0.0 W/m2 SCT
02:35 9.4 °F /  -12.6 °C 3.4 °F /  -15.9 °C 30.12 in /  1019.9 hPa South 11.5 mph /  18.5 km/h 11.5 mph /  18.5 km/h 76 % 0.00 in /  0 mm 0.0 W/m2 SCT
02:40 9.5 °F /  -12.5 °C 3.2 °F /  -16 °C 30.12 in /  1019.9 hPa SSW 10.4 mph /  16.7 km/h 10.4 mph /  16.7 km/h 75 % 0.00 in /  0 mm 0.0 W/m2 SCT
02:46 9.7 °F /  -12.4 °C 3.4 °F /  -15.9 °C 30.12 in /  1019.9 hPa SSW 3.0 mph /  4.8 km/h 3.0 mph /  4.8 km/h 75 % 0.00 in /  0 mm 0.0 W/m2 SCT
02:47 9.7 °F /  -12.4 °C 3.4 °F /  -15.9 °C 30.12 in /  1019.9 hPa SSW 8.1 mph /  13 km/h 8.1 mph /  13 km/h 75 % 0.00 in /  0 mm 0.0 W/m2 SCT
02:51 9.8 °F /  -12.3 °C 3.7 °F /  -15.7 °C 30.11 in /  1019.5 hPa SSW 6.9 mph /  11.1 km/h 6.9 mph /  11.1 km/h 76 % 0.00 in /  0 mm 0.0 W/m2 SCT
02:56 10.0 °F /  -12.2 °C 3.9 °F /  -15.6 °C 30.11 in /  1019.5 hPa South 3.0 mph /  4.8 km/h 3.0 mph /  4.8 km/h 76 % 0.00 in /  0 mm 0.0 W/m2 SCT
02:58 10.1 °F /  -12.2 °C 4.0 °F /  -15.6 °C 30.11 in /  1019.5 hPa South 9.2 mph /  14.8 km/h 9.2 mph /  14.8 km/h 76 % 0.00 in /  0 mm 0.0 W/m2 SCT
03:00 10.2 °F /  -12.1 °C 3.8 °F /  -15.7 °C 30.11 in /  1019.5 hPa SSW 8.1 mph /  13 km/h 8.1 mph /  13 km/h 75 % 0.00 in /  0 mm 0.0 W/m2 SCT
03:04 10.5 °F /  -11.9 °C 4.1 °F /  -15.5 °C 30.11 in /  1019.5 hPa SW 10.4 mph /  16.7 km/h 10.4 mph /  16.7 km/h 75 % 0.00 in /  0 mm 0.0 W/m2 BKN
03:06 10.5 °F /  -11.9 °C 4.1 °F /  -15.5 °C 30.11 in /  1019.5 hPa SSW 10.4 mph /  16.7 km/h 10.4 mph /  16.7 km/h 75 % 0.00 in /  0 mm 0.0 W/m2 BKN
03:09 10.7 °F /  -11.8 °C 4.3 °F /  -15.4 °C 30.11 in /  1019.5 hPa South 6.9 mph /  11.1 km/h 6.9 mph /  11.1 km/h 75 % 0.00 in /  0 mm 0.0 W/m2 BKN
03:11 10.8 °F /  -11.8 °C 4.4 °F /  -15.3 °C 30.11 in /  1019.5 hPa Calm     75 % 0.00 in /  0 mm 0.0 W/m2 BKN
03:16 10.8 °F /  -11.8 °C 4.1 °F /  -15.5 °C 30.10 in /  1019.2 hPa WSW 8.0 mph /  12.9 km/h 8.0 mph /  12.9 km/h 74 % 0.00 in /  0 mm 0.0 W/m2 BKN
03:21 10.9 °F /  -11.7 °C 4.2 °F /  -15.4 °C 30.10 in /  1019.2 hPa SSW 2.3 mph /  3.7 km/h 2.3 mph /  3.7 km/h 74 % 0.00 in /  0 mm 0.0 W/m2 BKN
03:22 10.9 °F /  -11.7 °C 4.2 °F /  -15.4 °C 30.10 in /  1019.2 hPa SSW 9.2 mph /  14.8 km/h 9.2 mph /  14.8 km/h 74 % 0.00 in /  0 mm 0.0 W/m2 BKN
03:27 11.0 °F /  -11.7 °C 4.3 °F /  -15.4 °C 30.10 in /  1019.2 hPa SW 9.0 mph /  14.5 km/h 9.0 mph /  14.5 km/h 74 % 0.00 in /  0 mm 0.0 W/m2 BKN
03:28 11.0 °F /  -11.7 °C 4.3 °F /  -15.4 °C 30.10 in /  1019.2 hPa SSW 9.2 mph /  14.8 km/h 9.2 mph /  14.8 km/h 74 % 0.00 in /  0 mm 0.0 W/m2 BKN
03:31 11.0 °F /  -11.7 °C 4.3 °F /  -15.4 °C 30.10 in /  1019.2 hPa SW 6.9 mph /  11.1 km/h 6.9 mph /  11.1 km/h 74 % 0.00 in /  0 mm 0.0 W/m2 OVC
03:33 11.1 °F /  -11.6 °C 4.4 °F /  -15.3 °C 30.10 in /  1019.2 hPa SSW 6.9 mph /  11.1 km/h 6.9 mph /  11.1 km/h 74 % 0.00 in /  0 mm 0.0 W/m2 OVC
03:39 11.2 °F /  -11.6 °C 4.8 °F /  -15.1 °C 30.09 in /  1018.8 hPa SSW 9.2 mph /  14.8 km/h 9.2 mph /  14.8 km/h 75 % 0.00 in /  0 mm 0.0 W/m2 OVC
03:40 11.2 °F /  -11.6 °C 4.8 °F /  -15.1 °C 30.09 in /  1018.8 hPa South 11.5 mph /  18.5 km/h 11.5 mph /  18.5 km/h 75 % 0.00 in /  0 mm 0.0 W/m2 OVC
03:44 11.4 °F /  -11.4 °C 4.7 °F /  -15.2 °C 30.09 in /  1018.8 hPa SW 4.0 mph /  6.4 km/h 4.0 mph /  6.4 km/h 74 % 0.00 in /  0 mm 0.0 W/m2 OVC
03:47 11.5 °F /  -11.4 °C 4.8 °F /  -15.1 °C 30.10 in /  1019.2 hPa SW 1.0 mph /  1.6 km/h 1.0 mph /  1.6 km/h 74 % 0.00 in /  0 mm 0.0 W/m2 OVC
03:50 11.6 °F /  -11.3 °C 4.9 °F /  -15.1 °C 30.09 in /  1018.8 hPa SSW 8.1 mph /  13 km/h 8.1 mph /  13 km/h 74 % 0.00 in /  0 mm 0.0 W/m2 OVC
03:55 11.7 °F /  -11.3 °C 5.0 °F /  -15 °C 30.09 in /  1018.8 hPa SW 8.1 mph /  13 km/h 8.1 mph /  13 km/h 74 % 0.00 in /  0 mm 0.0 W/m2 OVC
03:59 11.9 °F /  -11.2 °C 4.9 °F /  -15.1 °C 30.09 in /  1018.8 hPa SSW 5.8 mph /  9.3 km/h 5.8 mph /  9.3 km/h 73 % 0.00 in /  0 mm 0.0 W/m2 OVC
04:01 11.9 °F /  -11.2 °C 4.9 °F /  -15.1 °C 30.09 in /  1018.8 hPa SW 6.9 mph /  11.1 km/h 6.9 mph /  11.1 km/h 73 % 0.00 in /  0 mm 0.0 W/m2 OVC
04:06 12.1 °F /  -11.1 °C 5.1 °F /  -14.9 °C 30.09 in /  1018.8 hPa SSW 10.4 mph /  16.7 km/h 10.4 mph /  16.7 km/h 73 % 0.00 in /  0 mm 0.0 W/m2 OVC
04:11 12.3 °F /  -10.9 °C 5.3 °F /  -14.8 °C 30.08 in /  1018.5 hPa SSW 7.0 mph /  11.3 km/h 7.0 mph /  11.3 km/h 73 % 0.00 in /  0 mm 0.0 W/m2 OVC
04:13 12.3 °F /  -10.9 °C 5.3 °F /  -14.8 °C 30.08 in /  1018.5 hPa SW 7.0 mph /  11.3 km/h 7.0 mph /  11.3 km/h 73 % 0.00 in /  0 mm 0.0 W/m2 OVC
04:18 12.4 °F /  -10.9 °C 5.1 °F /  -14.9 °C 30.08 in /  1018.5 hPa SSW 9.2 mph /  14.8 km/h 9.2 mph /  14.8 km/h 72 % 0.00 in /  0 mm 0.0 W/m2 OVC
04:20 12.5 °F /  -10.8 °C 5.2 °F /  -14.9 °C 30.07 in /  1018.2 hPa SSW 6.9 mph /  11.1 km/h 6.9 mph /  11.1 km/h 72 % 0.00 in /  0 mm 0.0 W/m2 OVC
04:25 12.6 °F /  -10.8 °C 5.3 °F /  -14.8 °C 30.07 in /  1018.2 hPa SSW 6.9 mph /  11.1 km/h   72 % 0.00 in /  0 mm 0.0 W/m2 OVC
04:26 12.6 °F /  -10.8 °C 5.3 °F /  -14.8 °C 30.07 in /  1018.2 hPa Calm     72 % 0.00 in /  0 mm 0.0 W/m2 OVC
04:28 12.6 °F /  -10.8 °C 5.6 °F /  -14.7 °C 30.08 in /  1018.5 hPa SSW 4.6 mph /  7.4 km/h 4.6 mph /  7.4 km/h 73 % 0.00 in /  0 mm 0.0 W/m2 OVC
04:33 12.6 °F /  -10.8 °C 5.6 °F /  -14.7 °C 30.07 in /  1018.2 hPa SW 6.9 mph /  11.1 km/h 6.9 mph /  11.1 km/h 73 % 0.00 in /  0 mm 0.0 W/m2 OVC
04:35 12.6 °F /  -10.8 °C 5.6 °F /  -14.7 °C 30.07 in /  1018.2 hPa SSW 5.0 mph /  8 km/h 5.0 mph /  8 km/h 73 % 0.00 in /  0 mm 0.0 W/m2 OVC
04:39 12.7 °F /  -10.7 °C 5.7 °F /  -14.6 °C 30.07 in /  1018.2 hPa SW 10.4 mph /  16.7 km/h 10.4 mph /  16.7 km/h 73 % 0.00 in /  0 mm 0.0 W/m2 OVC
04:44 12.7 °F /  -10.7 °C 6.0 °F /  -14.4 °C 30.07 in /  1018.2 hPa SW 10.0 mph /  16.1 km/h 10.0 mph /  16.1 km/h 74 % 0.00 in /  0 mm 0.0 W/m2 OVC
04:49 12.7 °F /  -10.7 °C 6.0 °F /  -14.4 °C 30.07 in /  1018.2 hPa SSW 4.6 mph /  7.4 km/h 4.6 mph /  7.4 km/h 74 % 0.00 in /  0 mm 0.0 W/m2 OVC
04:58 12.7 °F /  -10.7 °C 6.6 °F /  -14.1 °C 30.07 in /  1018.2 hPa Calm     76 % 0.00 in /  0 mm 0.0 W/m2 OVC
05:04 12.8 °F /  -10.7 °C 6.7 °F /  -14.1 °C 30.07 in /  1018.2 hPa Calm     76 % 0.00 in /  0 mm 0.0 W/m2 OVC
05:09 12.9 °F /  -10.6 °C 7.0 °F /  -13.9 °C 30.07 in /  1018.2 hPa SW 9.2 mph /  14.8 km/h 9.2 mph /  14.8 km/h 77 % 0.00 in /  0 mm 0.0 W/m2 OVC
05:12 13.0 °F /  -10.6 °C 7.1 °F /  -13.8 °C 30.07 in /  1018.2 hPa WSW 8.1 mph /  13 km/h 8.1 mph /  13 km/h 77 % 0.00 in /  0 mm 0.0 W/m2 OVC
05:16 13.1 °F /  -10.5 °C 7.5 °F /  -13.6 °C 30.07 in /  1018.2 hPa SW 12.7 mph /  20.4 km/h 12.7 mph /  20.4 km/h 78 % 0.00 in /  0 mm 0.0 W/m2 OVC
05:19 13.2 °F /  -10.4 °C 7.6 °F /  -13.6 °C 30.07 in /  1018.2 hPa SW 12.7 mph /  20.4 km/h 12.7 mph /  20.4 km/h 78 % 0.00 in /  0 mm 0.0 W/m2 OVC
05:22 13.2 °F /  -10.4 °C 7.9 °F /  -13.4 °C 30.07 in /  1018.2 hPa WSW 8.0 mph /  12.9 km/h 8.0 mph /  12.9 km/h 79 % 0.00 in /  0 mm 0.0 W/m2 OVC
05:27 13.2 °F /  -10.4 °C 8.5 °F /  -13.1 °C 30.08 in /  1018.5 hPa SW 11.5 mph /  18.5 km/h 11.5 mph /  18.5 km/h 81 % 0.00 in /  0 mm 0.0 W/m2 OVC
05:31 13.2 °F /  -10.4 °C 8.7 °F /  -12.9 °C 30.08 in /  1018.5 hPa SW 9.2 mph /  14.8 km/h 9.2 mph /  14.8 km/h 82 % 0.00 in /  0 mm 0.0 W/m2 -SN
05:32 13.1 °F /  -10.5 °C 8.9 °F /  -12.8 °C 30.08 in /  1018.5 hPa WSW 8.1 mph /  13 km/h 8.1 mph /  13 km/h 83 % 0.00 in /  0 mm 0.0 W/m2 -SN
05:37 13.0 °F /  -10.6 °C 9.1 °F /  -12.7 °C 30.07 in /  1018.2 hPa WSW 11.5 mph /  18.5 km/h 11.5 mph /  18.5 km/h 84 % 0.00 in /  0 mm 0.0 W/m2 -SN
05:48 13.0 °F /  -10.6 °C 9.3 °F /  -12.6 °C 30.07 in /  1018.2 hPa SW 9.2 mph /  14.8 km/h 9.2 mph /  14.8 km/h 85 % 0.00 in /  0 mm 0.0 W/m2 -SN
05:53 13.0 °F /  -10.6 °C 9.6 °F /  -12.4 °C 30.07 in /  1018.2 hPa SSW 8.1 mph /  13 km/h 8.1 mph /  13 km/h 86 % 0.00 in /  0 mm 0.0 W/m2 -SN
05:54 13.0 °F /  -10.6 °C 9.6 °F /  -12.4 °C 30.06 in /  1017.8 hPa SW 9.2 mph /  14.8 km/h 9.2 mph /  14.8 km/h 86 % 0.00 in /  0 mm 0.0 W/m2 -SN
05:58 13.1 °F /  -10.5 °C 9.7 °F /  -12.4 °C 30.06 in /  1017.8 hPa SSW 8.1 mph /  13 km/h 8.1 mph /  13 km/h 86 % 0.00 in /  0 mm 0.0 W/m2 -SN
06:00 13.1 °F /  -10.5 °C 9.7 °F /  -12.4 °C 30.06 in /  1017.8 hPa WSW 9.2 mph /  14.8 km/h 9.2 mph /  14.8 km/h 86 % 0.00 in /  0 mm 0.0 W/m2 -SN
06:04 13.1 °F /  -10.5 °C 9.7 °F /  -12.4 °C 30.07 in /  1018.2 hPa SW 8.1 mph /  13 km/h 8.1 mph /  13 km/h 86 % 0.00 in /  0 mm 0.0 W/m2 -SN
06:09 13.2 °F /  -10.4 °C 9.8 °F /  -12.3 °C 30.06 in /  1017.8 hPa SSW 11.5 mph /  18.5 km/h 11.5 mph /  18.5 km/h 86 % 0.00 in /  0 mm 0.0 W/m2 -SN
06:10 13.2 °F /  -10.4 °C 10.1 °F /  -12.2 °C 30.06 in /  1017.8 hPa WSW 10.4 mph /  16.7 km/h 10.4 mph /  16.7 km/h 87 % 0.00 in /  0 mm 0.0 W/m2 -SN
06:16 13.2 °F /  -10.4 °C 10.1 °F /  -12.2 °C 30.06 in /  1017.8 hPa SW 8.1 mph /  13 km/h 8.1 mph /  13 km/h 87 % 0.00 in /  0 mm 0.0 W/m2 -SN
06:18 13.3 °F /  -10.4 °C 10.2 °F /  -12.1 °C 30.06 in /  1017.8 hPa SW 11.5 mph /  18.5 km/h 11.5 mph /  18.5 km/h 87 % 0.00 in /  0 mm 0.0 W/m2 -SN
06:21 13.3 °F /  -10.4 °C 10.2 °F /  -12.1 °C 30.06 in /  1017.8 hPa WSW 11.5 mph /  18.5 km/h 11.5 mph /  18.5 km/h 87 % 0.00 in /  0 mm 0.0 W/m2 -SN
06:26 13.4 °F /  -10.3 °C 10.3 °F /  -12.1 °C 30.06 in /  1017.8 hPa SW 2.0 mph /  3.2 km/h 2.0 mph /  3.2 km/h 87 % 0.00 in /  0 mm 0.0 W/m2 -SN
06:27 13.4 °F /  -10.3 °C 10.3 °F /  -12.1 °C 30.06 in /  1017.8 hPa WSW 5.0 mph /  8 km/h 5.0 mph /  8 km/h 87 % 0.00 in /  0 mm 0.0 W/m2 -SN
06:32 13.5 °F /  -10.3 °C 10.4 °F /  -12 °C 30.07 in /  1018.2 hPa SW 8.1 mph /  13 km/h 8.1 mph /  13 km/h 87 % 0.00 in /  0 mm 0.0 W/m2 -SN
06:37 13.6 °F /  -10.2 °C 10.5 °F /  -11.9 °C 30.07 in /  1018.2 hPa WSW 8.1 mph /  13 km/h 8.1 mph /  13 km/h 87 % 0.00 in /  0 mm 0.0 W/m2 -SN
06:42 13.7 °F /  -10.2 °C 10.5 °F /  -11.9 °C 30.07 in /  1018.2 hPa SW 9.2 mph /  14.8 km/h 9.2 mph /  14.8 km/h 87 % 0.00 in /  0 mm 0.0 W/m2 -SN
06:43 13.7 °F /  -10.2 °C 10.5 °F /  -11.9 °C 30.07 in /  1018.2 hPa WSW 7.0 mph /  11.3 km/h 7.0 mph /  11.3 km/h 87 % 0.00 in /  0 mm 0.0 W/m2 -SN
06:48 13.8 °F /  -10.1 °C 10.6 °F /  -11.9 °C 30.06 in /  1017.8 hPa WSW 5.8 mph /  9.3 km/h 5.8 mph /  9.3 km/h 87 % 0.00 in /  0 mm 0.0 W/m2 -SN
06:49 13.8 °F /  -10.1 °C 10.6 °F /  -11.9 °C 30.06 in /  1017.8 hPa WSW 8.1 mph /  13 km/h 8.1 mph /  13 km/h 87 % 0.00 in /  0 mm 0.0 W/m2 -SN
06:51 13.9 °F /  -10.1 °C 11.0 °F /  -11.7 °C 30.06 in /  1017.8 hPa WSW 6.9 mph /  11.1 km/h 6.9 mph /  11.1 km/h 88 % 0.00 in /  0 mm 0.0 W/m2 -SN
06:55 13.9 °F /  -10.1 °C 10.7 °F /  -11.8 °C 30.07 in /  1018.2 hPa SW 9.2 mph /  14.8 km/h 9.2 mph /  14.8 km/h 87 % 0.00 in /  0 mm 0.0 W/m2 -SN
07:00 14.0 °F /  -10 °C 10.8 °F /  -11.8 °C 30.07 in /  1018.2 hPa SW 10.4 mph /  16.7 km/h 10.4 mph /  16.7 km/h 87 % 0.00 in /  0 mm 0.0 W/m2 -SN
07:06 14.1 °F /  -9.9 °C 10.9 °F /  -11.7 °C 30.06 in /  1017.8 hPa WSW 10.0 mph /  16.1 km/h 10.0 mph /  16.1 km/h 87 % 0.00 in /  0 mm 0.0 W/m2 -SN
07:07 14.1 °F /  -9.9 °C 10.9 °F /  -11.7 °C 30.06 in /  1017.8 hPa WSW 11.5 mph /  18.5 km/h 11.5 mph /  18.5 km/h 87 % 0.00 in /  0 mm 0.0 W/m2 -SN
07:13 14.2 °F /  -9.9 °C 11.0 °F /  -11.7 °C 30.07 in /  1018.2 hPa SW 8.1 mph /  13 km/h 8.1 mph /  13 km/h 87 % 0.00 in /  0 mm 0.0 W/m2 -SN
07:18 14.3 °F /  -9.8 °C 11.1 °F /  -11.6 °C 30.06 in /  1017.8 hPa WSW 12.7 mph /  20.4 km/h 12.7 mph /  20.4 km/h 87 % 0.00 in /  0 mm 0.0 W/m2 -SN
07:20 14.3 °F /  -9.8 °C 11.1 °F /  -11.6 °C 30.06 in /  1017.8 hPa North 10.4 mph /  16.7 km/h 10.4 mph /  16.7 km/h 87 % 0.00 in /  0 mm 0.0 W/m2 -SN
07:23 14.3 °F /  -9.8 °C 11.1 °F /  -11.6 °C 30.06 in /  1017.8 hPa WSW 6.9 mph /  11.1 km/h 6.9 mph /  11.1 km/h 87 % 0.00 in /  0 mm 0.0 W/m2 -SN
07:28 14.4 °F /  -9.8 °C 11.2 °F /  -11.6 °C 30.06 in /  1017.8 hPa WSW 9.2 mph /  14.8 km/h 9.2 mph /  14.8 km/h 87 % 0.00 in /  0 mm 7.0 W/m2 -SN
07:29 14.4 °F /  -9.8 °C 11.2 °F /  -11.6 °C 30.06 in /  1017.8 hPa WSW 9.2 mph /  14.8 km/h 9.2 mph /  14.8 km/h 87 % 0.00 in /  0 mm 7.0 W/m2 -SN
07:37 14.5 °F /  -9.7 °C 11.1 °F /  -11.6 °C 30.06 in /  1017.8 hPa West 6.0 mph /  9.7 km/h 6.0 mph /  9.7 km/h 86 % 0.00 in /  0 mm 12.0 W/m2 -SN
07:41 14.6 °F /  -9.7 °C 11.2 °F /  -11.6 °C 30.05 in /  1017.5 hPa West 12.7 mph /  20.4 km/h 12.7 mph /  20.4 km/h 86 % 0.00 in /  0 mm 14.0 W/m2 -SN
07:43 14.6 °F /  -9.7 °C 11.2 °F /  -11.6 °C 30.05 in /  1017.5 hPa WSW 8.1 mph /  13 km/h 8.1 mph /  13 km/h 86 % 0.00 in /  0 mm 16.0 W/m2 -SN
07:48 14.7 °F /  -9.6 °C 11.3 °F /  -11.5 °C 30.05 in /  1017.5 hPa West 8.1 mph /  13 km/h 8.1 mph /  13 km/h 86 % 0.00 in /  0 mm 21.0 W/m2 -SN
07:49 14.7 °F /  -9.6 °C 11.3 °F /  -11.5 °C 30.05 in /  1017.5 hPa WNW 9.2 mph /  14.8 km/h 9.2 mph /  14.8 km/h 86 % 0.00 in /  0 mm 21.0 W/m2 -SN
07:54 14.8 °F /  -9.6 °C 11.4 °F /  -11.4 °C 30.06 in /  1017.8 hPa WSW 9.2 mph /  14.8 km/h 9.2 mph /  14.8 km/h 86 % 0.00 in /  0 mm 25.0 W/m2 OVC
07:55 14.8 °F /  -9.6 °C 11.4 °F /  -11.4 °C 30.06 in /  1017.8 hPa WSW 8.1 mph /  13 km/h 8.1 mph /  13 km/h 86 % 0.00 in /  0 mm 25.0 W/m2 OVC
07:56 14.8 °F /  -9.6 °C 11.4 °F /  -11.4 °C 30.06 in /  1017.8 hPa WSW 9.0 mph /  14.5 km/h 9.0 mph /  14.5 km/h 86 % 0.00 in /  0 mm 25.0 W/m2 OVC
08:00 14.9 °F /  -9.5 °C 11.5 °F /  -11.4 °C 30.06 in /  1017.8 hPa WSW 10.4 mph /  16.7 km/h 10.4 mph /  16.7 km/h 86 % 0.00 in /  0 mm 32.0 W/m2 OVC
08:03 14.9 °F /  -9.5 °C 11.5 °F /  -11.4 °C 30.06 in /  1017.8 hPa WSW 8.1 mph /  13 km/h 8.1 mph /  13 km/h 86 % 0.00 in /  0 mm 33.0 W/m2 OVC
08:08 15.0 °F /  -9.4 °C 11.3 °F /  -11.5 °C 30.05 in /  1017.5 hPa WSW 9.2 mph /  14.8 km/h 9.2 mph /  14.8 km/h 85 % 0.00 in /  0 mm 42.0 W/m2 OVC
08:10 15.1 °F /  -9.4 °C 11.4 °F /  -11.4 °C 30.05 in /  1017.5 hPa WSW 8.1 mph /  13 km/h 8.1 mph /  13 km/h 85 % 0.00 in /  0 mm 42.0 W/m2 OVC
08:15 15.2 °F /  -9.3 °C 11.5 °F /  -11.4 °C 30.05 in /  1017.5 hPa WSW 10.4 mph /  16.7 km/h 10.4 mph /  16.7 km/h 85 % 0.00 in /  0 mm 47.0 W/m2 OVC
08:16 15.2 °F /  -9.3 °C 11.5 °F /  -11.4 °C 30.05 in /  1017.5 hPa WSW 6.9 mph /  11.1 km/h 6.9 mph /  11.1 km/h 85 % 0.00 in /  0 mm 49.0 W/m2 OVC
08:21 15.3 °F /  -9.3 °C 11.6 °F /  -11.3 °C 30.05 in /  1017.5 hPa WSW 9.2 mph /  14.8 km/h 9.2 mph /  14.8 km/h 85 % 0.00 in /  0 mm 53.0 W/m2 OVC
08:23 15.3 °F /  -9.3 °C 11.6 °F /  -11.3 °C 30.05 in /  1017.5 hPa WSW 11.5 mph /  18.5 km/h 11.5 mph /  18.5 km/h 85 % 0.00 in /  0 mm 58.0 W/m2 OVC
08:28 15.4 °F /  -9.2 °C 11.7 °F /  -11.3 °C 30.05 in /  1017.5 hPa WSW 5.8 mph /  9.3 km/h 5.8 mph /  9.3 km/h 85 % 0.00 in /  0 mm 62.0 W/m2 OVC
08:29 15.4 °F /  -9.2 °C 11.7 °F /  -11.3 °C 30.05 in /  1017.5 hPa WSW 7.0 mph /  11.3 km/h 7.0 mph /  11.3 km/h 85 % 0.00 in /  0 mm 62.0 W/m2 OVC
08:34 15.5 °F /  -9.2 °C 11.8 °F /  -11.2 °C 30.05 in /  1017.5 hPa Calm     85 % 0.00 in /  0 mm 69.0 W/m2 -SN
08:39 15.5 °F /  -9.2 °C 11.8 °F /  -11.2 °C 30.06 in /  1017.8 hPa West 8.1 mph /  13 km/h 8.1 mph /  13 km/h 85 % 0.00 in /  0 mm 72.0 W/m2 -SN
08:41 15.5 °F /  -9.2 °C 11.8 °F /  -11.2 °C 30.06 in /  1017.8 hPa West 8.1 mph /  13 km/h 8.1 mph /  13 km/h 85 % 0.00 in /  0 mm 74.0 W/m2 -SN
08:46 15.6 °F /  -9.1 °C 12.2 °F /  -11 °C 30.06 in /  1017.8 hPa WSW 11.5 mph /  18.5 km/h 11.5 mph /  18.5 km/h 86 % 0.00 in /  0 mm 81.0 W/m2 -SN
08:47 15.7 °F /  -9.1 °C 12.3 °F /  -10.9 °C 30.06 in /  1017.8 hPa WSW 9.0 mph /  14.5 km/h 9.0 mph /  14.5 km/h 86 % 0.00 in /  0 mm 83.0 W/m2 -SN
08:52 15.7 °F /  -9.1 °C 12.3 °F /  -10.9 °C 30.06 in /  1017.8 hPa West 7.0 mph /  11.3 km/h 7.0 mph /  11.3 km/h 86 % 0.00 in /  0 mm 90.0 W/m2 -SN
08:53 15.7 °F /  -9.1 °C 12.3 °F /  -10.9 °C 30.06 in /  1017.8 hPa WSW 9.2 mph /  14.8 km/h 9.2 mph /  14.8 km/h 86 % 0.00 in /  0 mm 90.0 W/m2 -SN
08:54 15.7 °F /  -9.1 °C 12.3 °F /  -10.9 °C 30.06 in /  1017.8 hPa WSW 10.4 mph /  16.7 km/h 10.4 mph /  16.7 km/h 86 % 0.00 in /  0 mm 90.0 W/m2 -SN
08:59 15.8 °F /  -9 °C 12.4 °F /  -10.9 °C 30.06 in /  1017.8 hPa West 8.1 mph /  13 km/h 8.1 mph /  13 km/h 86 % 0.00 in /  0 mm 95.0 W/m2 -SN
09:07 15.9 °F /  -8.9 °C 12.5 °F /  -10.8 °C 30.06 in /  1017.8 hPa West 9.2 mph /  14.8 km/h 9.2 mph /  14.8 km/h 86 % 0.00 in /  0 mm 98.0 W/m2 -SN
09:12 16.0 °F /  -8.9 °C 12.6 °F /  -10.8 °C 30.06 in /  1017.8 hPa WSW 9.2 mph /  14.8 km/h 9.2 mph /  14.8 km/h 86 % 0.00 in /  0 mm 107.0 W/m2 -SN
09:17 16.1 °F /  -8.8 °C 12.7 °F /  -10.7 °C 30.06 in /  1017.8 hPa WSW 10.0 mph /  16.1 km/h 10.0 mph /  16.1 km/h 86 % 0.00 in /  0 mm 114.0 W/m2 -SN
09:19 16.1 °F /  -8.8 °C 12.7 °F /  -10.7 °C 30.06 in /  1017.8 hPa WSW 6.9 mph /  11.1 km/h 6.9 mph /  11.1 km/h 86 % 0.00 in /  0 mm 120.0 W/m2 -SN
09:24 16.2 °F /  -8.8 °C 13.0 °F /  -10.6 °C 30.06 in /  1017.8 hPa WSW 6.9 mph /  11.1 km/h 6.9 mph /  11.1 km/h 87 % 0.00 in /  0 mm 135.0 W/m2 -SN
09:33 16.3 °F /  -8.7 °C 13.1 °F /  -10.5 °C 30.06 in /  1017.8 hPa WNW 6.9 mph /  11.1 km/h 6.9 mph /  11.1 km/h 87 % 0.00 in /  0 mm 162.0 W/m2 -SN
09:37 16.4 °F /  -8.7 °C 13.2 °F /  -10.4 °C 30.07 in /  1018.2 hPa WSW 4.6 mph /  7.4 km/h 4.6 mph /  7.4 km/h 87 % 0.00 in /  0 mm 155.0 W/m2 -SN
09:39 16.4 °F /  -8.7 °C 13.2 °F /  -10.4 °C 30.07 in /  1018.2 hPa WSW 8.1 mph /  13 km/h 8.1 mph /  13 km/h 87 % 0.00 in /  0 mm 151.0 W/m2 -SN
09:44 16.5 °F /  -8.6 °C 13.3 °F /  -10.4 °C 30.07 in /  1018.2 hPa WSW 13.8 mph /  22.2 km/h 13.8 mph /  22.2 km/h 87 % 0.00 in /  0 mm 155.0 W/m2 -SN
09:50 16.7 °F /  -8.5 °C 13.5 °F /  -10.3 °C 30.07 in /  1018.2 hPa West 4.6 mph /  7.4 km/h 4.6 mph /  7.4 km/h 87 % 0.00 in /  0 mm 172.0 W/m2 -SN
09:53 16.8 °F /  -8.4 °C 13.6 °F /  -10.2 °C 30.07 in /  1018.2 hPa West 3.5 mph /  5.6 km/h 3.5 mph /  5.6 km/h 87 % 0.00 in /  0 mm 163.0 W/m2 -SN
09:55 16.8 °F /  -8.4 °C 13.6 °F /  -10.2 °C 30.07 in /  1018.2 hPa West 11.0 mph /  17.7 km/h 11.0 mph /  17.7 km/h 87 % 0.00 in /  0 mm 160.0 W/m2 -SN
10:00 16.9 °F /  -8.4 °C 13.4 °F /  -10.3 °C 30.07 in /  1018.2 hPa West 8.1 mph /  13 km/h 8.1 mph /  13 km/h 86 % 0.00 in /  0 mm 165.0 W/m2 -SN
10:01 16.9 °F /  -8.4 °C 13.4 °F /  -10.3 °C 30.07 in /  1018.2 hPa WNW 8.1 mph /  13 km/h 8.1 mph /  13 km/h 86 % 0.00 in /  0 mm 163.0 W/m2 -SN
10:02 16.9 °F /  -8.4 °C 13.4 °F /  -10.3 °C 30.07 in /  1018.2 hPa WSW 11.5 mph /  18.5 km/h 11.5 mph /  18.5 km/h 86 % 0.00 in /  0 mm 169.0 W/m2 -SN
10:07 17.0 °F /  -8.3 °C 13.5 °F /  -10.3 °C 30.07 in /  1018.2 hPa West 9.2 mph /  14.8 km/h 9.2 mph /  14.8 km/h 86 % 0.00 in /  0 mm 172.0 W/m2 -SN
10:09 17.0 °F /  -8.3 °C 13.5 °F /  -10.3 °C 30.07 in /  1018.2 hPa WNW 5.8 mph /  9.3 km/h 5.8 mph /  9.3 km/h 86 % 0.00 in /  0 mm 176.0 W/m2 -SN
10:13 17.0 °F /  -8.3 °C 13.3 °F /  -10.4 °C 30.07 in /  1018.2 hPa WNW 11.5 mph /  18.5 km/h 11.5 mph /  18.5 km/h 85 % 0.00 in /  0 mm 179.0 W/m2 -SN
10:18 16.9 °F /  -8.4 °C 13.2 °F /  -10.4 °C 30.07 in /  1018.2 hPa West 8.1 mph /  13 km/h 8.1 mph /  13 km/h 85 % 0.00 in /  0 mm 193.0 W/m2 -SN
10:24 16.8 °F /  -8.4 °C 13.1 °F /  -10.5 °C 30.07 in /  1018.2 hPa WNW 11.5 mph /  18.5 km/h 11.5 mph /  18.5 km/h 85 % 0.00 in /  0 mm 192.0 W/m2 -SN
10:29 16.7 °F /  -8.5 °C 13.0 °F /  -10.6 °C 30.07 in /  1018.2 hPa WNW 9.2 mph /  14.8 km/h 9.2 mph /  14.8 km/h 85 % 0.00 in /  0 mm 216.0 W/m2 -SN
10:30 16.7 °F /  -8.5 °C 13.0 °F /  -10.6 °C 30.07 in /  1018.2 hPa WNW 9.2 mph /  14.8 km/h 9.2 mph /  14.8 km/h 85 % 0.00 in /  0 mm 211.0 W/m2 -SN
10:37 16.6 °F /  -8.6 °C 12.9 °F /  -10.6 °C 30.07 in /  1018.2 hPa WNW 11.5 mph /  18.5 km/h 11.5 mph /  18.5 km/h 85 % 0.00 in /  0 mm 225.0 W/m2 -SN
10:38 16.6 °F /  -8.6 °C 12.9 °F /  -10.6 °C 30.07 in /  1018.2 hPa West 10.4 mph /  16.7 km/h 10.4 mph /  16.7 km/h 85 % 0.00 in /  0 mm 225.0 W/m2 -SN
10:39 16.7 °F /  -8.5 °C 12.7 °F /  -10.7 °C 30.07 in /  1018.2 hPa WNW 9.0 mph /  14.5 km/h 9.0 mph /  14.5 km/h 84 % 0.00 in /  0 mm 223.0 W/m2 -SN
10:44 16.7 °F /  -8.5 °C 12.4 °F /  -10.9 °C 30.07 in /  1018.2 hPa West 6.9 mph /  11.1 km/h 6.9 mph /  11.1 km/h 83 % 0.00 in /  0 mm 230.0 W/m2 -SN
10:45 16.7 °F /  -8.5 °C 12.4 °F /  -10.9 °C 30.07 in /  1018.2 hPa WNW 6.9 mph /  11.1 km/h 6.9 mph /  11.1 km/h 83 % 0.00 in /  0 mm 225.0 W/m2 -SN
10:49 16.7 °F /  -8.5 °C 12.2 °F /  -11 °C 30.07 in /  1018.2 hPa West 10.4 mph /  16.7 km/h 10.4 mph /  16.7 km/h 82 % 0.00 in /  0 mm 221.0 W/m2 -SN
10:51 16.7 °F /  -8.5 °C 12.2 °F /  -11 °C 30.07 in /  1018.2 hPa WNW 11.5 mph /  18.5 km/h 11.5 mph /  18.5 km/h 82 % 0.00 in /  0 mm 223.0 W/m2 -SN
10:55 16.7 °F /  -8.5 °C 12.2 °F /  -11 °C 30.06 in /  1017.8 hPa WNW 9.2 mph /  14.8 km/h 9.2 mph /  14.8 km/h 82 % 0.00 in /  0 mm 218.0 W/m2 -SN
10:57 16.6 °F /  -8.6 °C 12.1 °F /  -11.1 °C 30.07 in /  1018.2 hPa West 10.4 mph /  16.7 km/h 10.4 mph /  16.7 km/h 82 % 0.00 in /  0 mm 207.0 W/m2 -SN
11:02 16.5 °F /  -8.6 °C 12.0 °F /  -11.1 °C 30.07 in /  1018.2 hPa NW 10.0 mph /  16.1 km/h 10.0 mph /  16.1 km/h 82 % 0.00 in /  0 mm 213.0 W/m2 -SN
11:07 16.5 °F /  -8.6 °C 12.0 °F /  -11.1 °C 30.07 in /  1018.2 hPa NW 11.5 mph /  18.5 km/h 11.5 mph /  18.5 km/h 82 % 0.00 in /  0 mm 243.0 W/m2 -SN
11:08 16.5 °F /  -8.6 °C 12.0 °F /  -11.1 °C 30.07 in /  1018.2 hPa NW 14.0 mph /  22.5 km/h 14.0 mph /  22.5 km/h 82 % 0.00 in /  0 mm 248.0 W/m2 -SN
11:13 16.5 °F /  -8.6 °C 11.7 °F /  -11.3 °C 30.06 in /  1017.8 hPa NW 9.2 mph /  14.8 km/h 9.2 mph /  14.8 km/h 81 % 0.00 in /  0 mm 248.0 W/m2 -SN
11:15 16.5 °F /  -8.6 °C 12.0 °F /  -11.1 °C 30.06 in /  1017.8 hPa WNW 9.2 mph /  14.8 km/h 9.2 mph /  14.8 km/h 82 % 0.00 in /  0 mm 232.0 W/m2 -SN
11:18 16.5 °F /  -8.6 °C 12.0 °F /  -11.1 °C 30.06 in /  1017.8 hPa NW 6.9 mph /  11.1 km/h 6.9 mph /  11.1 km/h 82 % 0.00 in /  0 mm 206.0 W/m2 -SN
11:20 16.5 °F /  -8.6 °C 12.0 °F /  -11.1 °C 30.06 in /  1017.8 hPa WNW 9.2 mph /  14.8 km/h 9.2 mph /  14.8 km/h 82 % 0.00 in /  0 mm 244.0 W/m2 -SN
11:24 16.5 °F /  -8.6 °C 12.2 °F /  -11 °C 30.06 in /  1017.8 hPa WNW 7.0 mph /  11.3 km/h 7.0 mph /  11.3 km/h 83 % 0.00 in /  0 mm 197.0 W/m2 -SN
11:27 16.5 °F /  -8.6 °C 12.2 °F /  -11 °C 30.06 in /  1017.8 hPa NW 11.5 mph /  18.5 km/h 11.5 mph /  18.5 km/h 83 % 0.00 in /  0 mm 153.0 W/m2 -SN
11:30 16.3 °F /  -8.7 °C 12.0 °F /  -11.1 °C 30.06 in /  1017.8 hPa NW 11.5 mph /  18.5 km/h 11.5 mph /  18.5 km/h 83 % 0.00 in /  0 mm 167.0 W/m2 -SN
11:33 16.2 °F /  -8.8 °C 12.2 °F /  -11 °C 30.05 in /  1017.5 hPa NNW 10.4 mph /  16.7 km/h 10.4 mph /  16.7 km/h 84 % 0.00 in /  0 mm 176.0 W/m2 -SN
11:38 16.1 °F /  -8.8 °C 12.1 °F /  -11.1 °C 30.05 in /  1017.5 hPa NW 5.8 mph /  9.3 km/h 5.8 mph /  9.3 km/h 84 % 0.00 in /  0 mm 188.0 W/m2 -SN
11:43 16.1 °F /  -8.8 °C 12.1 °F /  -11.1 °C 30.06 in /  1017.8 hPa NW 8.1 mph /  13 km/h 8.1 mph /  13 km/h 84 % 0.00 in /  0 mm 179.0 W/m2 -SN
11:48 16.2 °F /  -8.8 °C 12.5 °F /  -10.8 °C 30.05 in /  1017.5 hPa WNW 5.8 mph /  9.3 km/h 5.8 mph /  9.3 km/h 85 % 0.00 in /  0 mm 167.0 W/m2 -SN
11:49 16.2 °F /  -8.8 °C 12.2 °F /  -11 °C 30.06 in /  1017.8 hPa WNW 3.5 mph /  5.6 km/h 3.5 mph /  5.6 km/h 84 % 0.00 in /  0 mm 169.0 W/m2 -SN
11:53 16.4 °F /  -8.7 °C 12.4 °F /  -10.9 °C 30.06 in /  1017.8 hPa WNW 5.0 mph /  8 km/h 5.0 mph /  8 km/h 84 % 0.00 in /  0 mm 202.0 W/m2 -SN
11:54 16.4 °F /  -8.7 °C 12.4 °F /  -10.9 °C 30.06 in /  1017.8 hPa WNW 9.2 mph /  14.8 km/h 9.2 mph /  14.8 km/h 84 % 0.00 in /  0 mm 214.0 W/m2 -SN
11:59 16.4 °F /  -8.7 °C 11.9 °F /  -11.2 °C 30.06 in /  1017.8 hPa WNW 8.1 mph /  13 km/h 8.1 mph /  13 km/h 82 % 0.00 in /  0 mm 241.0 W/m2 -SN
12:02 16.5 °F /  -8.6 °C 11.7 °F /  -11.3 °C 30.06 in /  1017.8 hPa WNW 5.8 mph /  9.3 km/h 5.8 mph /  9.3 km/h 81 % 0.00 in /  0 mm 225.0 W/m2 -SN
12:04 16.6 °F /  -8.6 °C 12.1 °F /  -11.1 °C 30.06 in /  1017.8 hPa NW 8.1 mph /  13 km/h 8.1 mph /  13 km/h 82 % 0.00 in /  0 mm 200.0 W/m2 -SN
12:09 16.5 °F /  -8.6 °C 12.2 °F /  -11 °C 30.06 in /  1017.8 hPa WNW 6.9 mph /  11.1 km/h 6.9 mph /  11.1 km/h 83 % 0.00 in /  0 mm 171.0 W/m2 -SN
12:13 16.4 °F /  -8.7 °C 12.4 °F /  -10.9 °C 30.06 in /  1017.8 hPa WNW 8.1 mph /  13 km/h 8.1 mph /  13 km/h 84 % 0.00 in /  0 mm 163.0 W/m2 -SN
12:17 16.2 °F /  -8.8 °C 12.2 °F /  -11 °C 30.06 in /  1017.8 hPa WNW 10.4 mph /  16.7 km/h 10.4 mph /  16.7 km/h 84 % 0.00 in /  0 mm 167.0 W/m2 -SN
12:22 15.9 °F /  -8.9 °C 12.5 °F /  -10.8 °C 30.06 in /  1017.8 hPa WNW 12.0 mph /  19.3 km/h 12.0 mph /  19.3 km/h 86 % 0.00 in /  0 mm 179.0 W/m2 -SN
12:24 15.7 °F /  -9.1 °C 12.0 °F /  -11.1 °C 30.06 in /  1017.8 hPa NW 11.5 mph /  18.5 km/h 11.5 mph /  18.5 km/h 85 % 0.00 in /  0 mm 178.0 W/m2 -SN
12:28 15.2 °F /  -9.3 °C 11.8 °F /  -11.2 °C 30.06 in /  1017.8 hPa WNW 13.8 mph /  22.2 km/h 13.8 mph /  22.2 km/h 86 % 0.00 in /  0 mm 200.0 W/m2 -SN
12:30 15.2 °F /  -9.3 °C 12.0 °F /  -11.1 °C 30.06 in /  1017.8 hPa WNW 6.9 mph /  11.1 km/h 6.9 mph /  11.1 km/h 87 % 0.00 in /  0 mm 216.0 W/m2 -SN
12:35 15.3 °F /  -9.3 °C 12.1 °F /  -11.1 °C 30.06 in /  1017.8 hPa NW 11.5 mph /  18.5 km/h 11.5 mph /  18.5 km/h 87 % 0.00 in /  0 mm 246.0 W/m2 -SN
12:39 15.6 °F /  -9.1 °C 12.4 °F /  -10.9 °C 30.06 in /  1017.8 hPa WNW 11.0 mph /  17.7 km/h 11.0 mph /  17.7 km/h 87 % 0.00 in /  0 mm 265.0 W/m2 -SN
12:44 15.7 °F /  -9.1 °C 12.5 °F /  -10.8 °C 30.06 in /  1017.8 hPa WNW 12.7 mph /  20.4 km/h 12.7 mph /  20.4 km/h 87 % 0.00 in /  0 mm 265.0 W/m2 OVC
12:45 15.7 °F /  -9.1 °C 12.5 °F /  -10.8 °C 30.06 in /  1017.8 hPa NW 12.7 mph /  20.4 km/h 12.7 mph /  20.4 km/h 87 % 0.00 in /  0 mm 264.0 W/m2 OVC
12:50 15.7 °F /  -9.1 °C 12.3 °F /  -10.9 °C 30.06 in /  1017.8 hPa NNW 12.7 mph /  20.4 km/h 12.7 mph /  20.4 km/h 86 % 0.01 in /  0.25 mm 250.0 W/m2 RA
12:55 15.7 °F /  -9.1 °C 12.3 °F /  -10.9 °C 30.06 in /  1017.8 hPa NW 12.7 mph /  20.4 km/h 12.7 mph /  20.4 km/h 86 % 0.01 in /  0.25 mm 265.0 W/m2 RA
12:56 15.7 °F /  -9.1 °C 12.3 °F /  -10.9 °C 30.06 in /  1017.8 hPa WNW 11.5 mph /  18.5 km/h 11.5 mph /  18.5 km/h 86 % 0.01 in /  0.25 mm 265.0 W/m2 OVC
12:57 15.7 °F /  -9.1 °C 12.3 °F /  -10.9 °C 30.06 in /  1017.8 hPa WNW 11.5 mph /  18.5 km/h 11.5 mph /  18.5 km/h 86 % 0.01 in /  0.25 mm 265.0 W/m2 OVC
13:02 15.7 °F /  -9.1 °C 12.3 °F /  -10.9 °C 30.06 in /  1017.8 hPa West 11.5 mph /  18.5 km/h 11.5 mph /  18.5 km/h 86 % 0.01 in /  0.25 mm 258.0 W/m2 OVC
13:07 15.5 °F /  -9.2 °C 11.5 °F /  -11.4 °C 30.06 in /  1017.8 hPa WNW 11.5 mph /  18.5 km/h 11.5 mph /  18.5 km/h 84 % 0.01 in /  0.25 mm 264.0 W/m2 OVC
13:09 15.5 °F /  -9.2 °C 11.5 °F /  -11.4 °C 30.06 in /  1017.8 hPa WNW 10.4 mph /  16.7 km/h 10.4 mph /  16.7 km/h 84 % 0.01 in /  0.25 mm 260.0 W/m2 OVC
13:14 15.4 °F /  -9.2 °C 11.4 °F /  -11.4 °C 30.06 in /  1017.8 hPa NW 12.7 mph /  20.4 km/h 12.7 mph /  20.4 km/h 84 % 0.01 in /  0.25 mm 257.0 W/m2 OVC
13:15 15.4 °F /  -9.2 °C 11.2 °F /  -11.6 °C 30.06 in /  1017.8 hPa WNW 9.0 mph /  14.5 km/h 9.0 mph /  14.5 km/h 83 % 0.01 in /  0.25 mm 257.0 W/m2 OVC
13:19 15.4 °F /  -9.2 °C 11.2 °F /  -11.6 °C 30.06 in /  1017.8 hPa West 15.0 mph /  24.1 km/h 15.0 mph /  24.1 km/h 83 % 0.01 in /  0.25 mm 257.0 W/m2 OVC
13:20 15.4 °F /  -9.2 °C 11.2 °F /  -11.6 °C 30.06 in /  1017.8 hPa WNW 17.0 mph /  27.4 km/h 17.0 mph /  27.4 km/h 83 % 0.01 in /  0.25 mm 251.0 W/m2 OVC
13:24 15.3 °F /  -9.3 °C 11.1 °F /  -11.6 °C 30.06 in /  1017.8 hPa WNW 12.7 mph /  20.4 km/h 12.7 mph /  20.4 km/h 83 % 0.01 in /  0.25 mm 246.0 W/m2 OVC
13:29 15.3 °F /  -9.3 °C 11.1 °F /  -11.6 °C 30.06 in /  1017.8 hPa NW 12.7 mph /  20.4 km/h 12.7 mph /  20.4 km/h 83 % 0.01 in /  0.25 mm 237.0 W/m2 OVC
13:32 15.3 °F /  -9.3 °C 11.1 °F /  -11.6 °C 30.06 in /  1017.8 hPa NW 14.0 mph /  22.5 km/h 14.0 mph /  22.5 km/h 83 % 0.01 in /  0.25 mm 236.0 W/m2 OVC
13:35 15.2 °F /  -9.3 °C 10.7 °F /  -11.8 °C 30.06 in /  1017.8 hPa WNW 17.3 mph /  27.8 km/h 17.3 mph /  27.8 km/h 82 % 0.01 in /  0.25 mm 223.0 W/m2 OVC
13:41 15.0 °F /  -9.4 °C 10.2 °F /  -12.1 °C 30.06 in /  1017.8 hPa NW 13.8 mph /  22.2 km/h 13.8 mph /  22.2 km/h 81 % 0.01 in /  0.25 mm 221.0 W/m2 OVC
13:42 15.0 °F /  -9.4 °C 10.2 °F /  -12.1 °C 30.06 in /  1017.8 hPa WNW 12.7 mph /  20.4 km/h 12.7 mph /  20.4 km/h 81 % 0.01 in /  0.25 mm 221.0 W/m2 OVC
13:46 14.9 °F /  -9.5 °C 10.1 °F /  -12.2 °C 30.07 in /  1018.2 hPa WSW 12.7 mph /  20.4 km/h 12.7 mph /  20.4 km/h 81 % 0.00 in /  0 mm 260.0 W/m2 OVC
13:48 14.9 °F /  -9.5 °C 10.1 °F /  -12.2 °C 30.07 in /  1018.2 hPa WNW 11.5 mph /  18.5 km/h 11.5 mph /  18.5 km/h 81 % 0.00 in /  0 mm 297.0 W/m2 OVC
13:51 14.9 °F /  -9.5 °C 10.1 °F /  -12.2 °C 30.07 in /  1018.2 hPa WNW 11.5 mph /  18.5 km/h 11.5 mph /  18.5 km/h 81 % 0.00 in /  0 mm 230.0 W/m2 OVC
13:55 14.9 °F /  -9.5 °C 9.8 °F /  -12.3 °C 30.07 in /  1018.2 hPa WNW 8.1 mph /  13 km/h 8.1 mph /  13 km/h 80 % 0.00 in /  0 mm 367.0 W/m2 OVC
13:57 14.9 °F /  -9.5 °C 9.8 °F /  -12.3 °C 30.06 in /  1017.8 hPa West 11.5 mph /  18.5 km/h 11.5 mph /  18.5 km/h 80 % 0.00 in /  0 mm 359.0 W/m2 OVC
14:02 15.3 °F /  -9.3 °C 10.0 °F /  -12.2 °C 30.07 in /  1018.2 hPa WNW 12.0 mph /  19.3 km/h 12.0 mph /  19.3 km/h 79 % 0.00 in /  0 mm 497.0 W/m2 OVC
14:03 15.5 °F /  -9.2 °C 10.1 °F /  -12.2 °C 30.07 in /  1018.2 hPa WNW 11.5 mph /  18.5 km/h 11.5 mph /  18.5 km/h 79 % 0.00 in /  0 mm 547.0 W/m2 OVC
14:08 15.8 °F /  -9 °C 10.4 °F /  -12 °C 30.07 in /  1018.2 hPa WNW 10.4 mph /  16.7 km/h 10.4 mph /  16.7 km/h 79 % 0.00 in /  0 mm 503.0 W/m2 OVC
14:13 15.8 °F /  -9 °C 10.2 °F /  -12.1 °C 30.07 in /  1018.2 hPa WNW 15.0 mph /  24.1 km/h 15.0 mph /  24.1 km/h 78 % 0.00 in /  0 mm 334.0 W/m2 OVC
14:15 15.7 °F /  -9.1 °C 9.8 °F /  -12.3 °C 30.07 in /  1018.2 hPa WNW 11.5 mph /  18.5 km/h 11.5 mph /  18.5 km/h 77 % 0.00 in /  0 mm 323.0 W/m2 OVC
14:20 15.5 °F /  -9.2 °C 9.6 °F /  -12.4 °C 30.07 in /  1018.2 hPa West 12.7 mph /  20.4 km/h 12.7 mph /  20.4 km/h 77 % 0.00 in /  0 mm 323.0 W/m2 OVC
14:22 15.4 °F /  -9.2 °C 9.5 °F /  -12.5 °C 30.07 in /  1018.2 hPa WNW 11.5 mph /  18.5 km/h 11.5 mph /  18.5 km/h 77 % 0.00 in /  0 mm 374.0 W/m2 OVC
14:26 15.3 °F /  -9.3 °C 9.4 °F /  -12.6 °C 30.08 in /  1018.5 hPa NW 12.7 mph /  20.4 km/h 12.7 mph /  20.4 km/h 77 % 0.00 in /  0 mm 325.0 W/m2 OVC
14:28 15.3 °F /  -9.3 °C 9.4 °F /  -12.6 °C 30.08 in /  1018.5 hPa NW 11.5 mph /  18.5 km/h 11.5 mph /  18.5 km/h 77 % 0.00 in /  0 mm 229.0 W/m2 OVC
14:31 15.2 °F /  -9.3 °C 9.3 °F /  -12.6 °C 30.08 in /  1018.5 hPa NW 10.4 mph /  16.7 km/h 10.4 mph /  16.7 km/h 77 % 0.00 in /  0 mm 350.0 W/m2 OVC
14:36 15.2 °F /  -9.3 °C 9.3 °F /  -12.6 °C 30.08 in /  1018.5 hPa NW 12.7 mph /  20.4 km/h 12.7 mph /  20.4 km/h 77 % 0.00 in /  0 mm 334.0 W/m2 OVC
14:39 15.0 °F /  -9.4 °C 8.8 °F /  -12.9 °C 30.08 in /  1018.5 hPa WNW 12.7 mph /  20.4 km/h 12.7 mph /  20.4 km/h 76 % 0.00 in /  0 mm 269.0 W/m2 OVC
14:44 14.7 °F /  -9.6 °C 8.2 °F /  -13.2 °C 30.08 in /  1018.5 hPa WNW 12.7 mph /  20.4 km/h 12.7 mph /  20.4 km/h 75 % 0.00 in /  0 mm 248.0 W/m2 OVC
14:49 14.4 °F /  -9.8 °C 7.6 °F /  -13.6 °C 30.08 in /  1018.5 hPa WNW 13.8 mph /  22.2 km/h 13.8 mph /  22.2 km/h 74 % 0.00 in /  0 mm 223.0 W/m2 OVC
14:54 14.3 °F /  -9.8 °C 7.5 °F /  -13.6 °C 30.09 in /  1018.8 hPa WNW 10.4 mph /  16.7 km/h 10.4 mph /  16.7 km/h 74 % 0.00 in /  0 mm 218.0 W/m2 OVC
14:57 14.2 °F /  -9.9 °C 7.4 °F /  -13.7 °C 30.09 in /  1018.8 hPa West 11.5 mph /  18.5 km/h 11.5 mph /  18.5 km/h 74 % 0.00 in /  0 mm 213.0 W/m2 OVC
15:01 14.2 °F /  -9.9 °C 7.7 °F /  -13.5 °C 30.09 in /  1018.8 hPa West 11.5 mph /  18.5 km/h 11.5 mph /  18.5 km/h 75 % 0.00 in /  0 mm 202.0 W/m2 OVC
15:02 14.1 °F /  -9.9 °C 7.6 °F /  -13.6 °C 30.09 in /  1018.8 hPa WNW 11.5 mph /  18.5 km/h 11.5 mph /  18.5 km/h 75 % 0.00 in /  0 mm 195.0 W/m2 OVC
15:07 14.0 °F /  -10 °C 7.2 °F /  -13.8 °C 30.09 in /  1018.8 hPa WNW 8.1 mph /  13 km/h 8.1 mph /  13 km/h 74 % 0.00 in /  0 mm 178.0 W/m2 OVC
15:10 14.0 °F /  -10 °C 7.2 °F /  -13.8 °C 30.09 in /  1018.8 hPa West 9.0 mph /  14.5 km/h 9.0 mph /  14.5 km/h 74 % 0.00 in /  0 mm 167.0 W/m2 OVC
15:13 13.9 °F /  -10.1 °C 7.1 °F /  -13.8 °C 30.10 in /  1019.2 hPa NW 12.0 mph /  19.3 km/h 12.0 mph /  19.3 km/h 74 % 0.00 in /  0 mm 160.0 W/m2 OVC
15:17 13.7 °F /  -10.2 °C 6.9 °F /  -13.9 °C 30.09 in /  1018.8 hPa WNW 12.7 mph /  20.4 km/h 12.7 mph /  20.4 km/h 74 % 0.00 in /  0 mm 149.0 W/m2 OVC
15:18 13.7 °F /  -10.2 °C 6.9 °F /  -13.9 °C 30.10 in /  1019.2 hPa WNW 11.5 mph /  18.5 km/h 11.5 mph /  18.5 km/h 74 % 0.00 in /  0 mm 141.0 W/m2 OVC
15:24 13.5 °F /  -10.3 °C 6.5 °F /  -14.2 °C 30.10 in /  1019.2 hPa WNW 11.5 mph /  18.5 km/h 11.5 mph /  18.5 km/h 73 % 0.00 in /  0 mm 125.0 W/m2 OVC
15:26 13.4 °F /  -10.3 °C 6.4 °F /  -14.2 °C 30.10 in /  1019.2 hPa NW 11.5 mph /  18.5 km/h 11.5 mph /  18.5 km/h 73 % 0.00 in /  0 mm 118.0 W/m2 OVC
15:29 13.4 °F /  -10.3 °C 6.4 °F /  -14.2 °C 30.10 in /  1019.2 hPa West 6.9 mph /  11.1 km/h 6.9 mph /  11.1 km/h 73 % 0.00 in /  0 mm 109.0 W/m2 OVC
15:39 13.0 °F /  -10.6 °C 6.0 °F /  -14.4 °C 30.11 in /  1019.5 hPa WNW 10.4 mph /  16.7 km/h 10.4 mph /  16.7 km/h 73 % 0.00 in /  0 mm 90.0 W/m2 OVC
15:40 13.0 °F /  -10.6 °C 6.0 °F /  -14.4 °C 30.11 in /  1019.5 hPa West 8.1 mph /  13 km/h 8.1 mph /  13 km/h 73 % 0.00 in /  0 mm 86.0 W/m2 OVC
15:41 13.0 °F /  -10.6 °C 6.0 °F /  -14.4 °C 30.11 in /  1019.5 hPa WNW 11.0 mph /  17.7 km/h 11.0 mph /  17.7 km/h 73 % 0.00 in /  0 mm 77.0 W/m2 OVC
15:46 12.8 °F /  -10.7 °C 5.8 °F /  -14.6 °C 30.11 in /  1019.5 hPa NW 8.1 mph /  13 km/h 8.1 mph /  13 km/h 73 % 0.00 in /  0 mm 37.0 W/m2 BKN
15:49 12.6 °F /  -10.8 °C 5.6 °F /  -14.7 °C 30.11 in /  1019.5 hPa West 10.4 mph /  16.7 km/h 10.4 mph /  16.7 km/h 73 % 0.00 in /  0 mm 35.0 W/m2 BKN
15:56 12.3 °F /  -10.9 °C 5.6 °F /  -14.7 °C 30.11 in /  1019.5 hPa WNW 10.4 mph /  16.7 km/h 10.4 mph /  16.7 km/h 74 % 0.00 in /  0 mm 30.0 W/m2 BKN
15:58 12.2 °F /  -11 °C 5.5 °F /  -14.7 °C 30.11 in /  1019.5 hPa West 10.4 mph /  16.7 km/h 10.4 mph /  16.7 km/h 74 % 0.00 in /  0 mm 28.0 W/m2 BKN
16:02 12.1 °F /  -11.1 °C 5.4 °F /  -14.8 °C 30.11 in /  1019.5 hPa WNW 6.9 mph /  11.1 km/h 6.9 mph /  11.1 km/h 74 % 0.00 in /  0 mm 26.0 W/m2 BKN
16:03 12.1 °F /  -11.1 °C 5.4 °F /  -14.8 °C 30.11 in /  1019.5 hPa West 11.5 mph /  18.5 km/h 11.5 mph /  18.5 km/h 74 % 0.00 in /  0 mm 25.0 W/m2 BKN
16:08 11.9 °F /  -11.2 °C 5.2 °F /  -14.9 °C 30.12 in /  1019.9 hPa WNW 8.1 mph /  13 km/h 8.1 mph /  13 km/h 74 % 0.00 in /  0 mm 21.0 W/m2 BKN
16:09 11.9 °F /  -11.2 °C 5.2 °F /  -14.9 °C 30.12 in /  1019.9 hPa NW 11.5 mph /  18.5 km/h 11.5 mph /  18.5 km/h 74 % 0.00 in /  0 mm 21.0 W/m2 BKN
16:14 11.7 °F /  -11.3 °C 5.0 °F /  -15 °C 30.12 in /  1019.9 hPa NW 11.5 mph /  18.5 km/h 11.5 mph /  18.5 km/h 74 % 0.00 in /  0 mm 18.0 W/m2 BKN
16:19 11.5 °F /  -11.4 °C 4.8 °F /  -15.1 °C 30.12 in /  1019.9 hPa WNW 8.1 mph /  13 km/h 8.1 mph /  13 km/h 74 % 0.00 in /  0 mm 14.0 W/m2 BKN
16:24 11.3 °F /  -11.5 °C 4.9 °F /  -15.1 °C 30.13 in /  1020.2 hPa WNW 10.4 mph /  16.7 km/h 10.4 mph /  16.7 km/h 75 % 0.00 in /  0 mm 11.0 W/m2 BKN
16:25 11.3 °F /  -11.5 °C 4.9 °F /  -15.1 °C 30.13 in /  1020.2 hPa WNW 7.0 mph /  11.3 km/h 7.0 mph /  11.3 km/h 75 % 0.00 in /  0 mm 11.0 W/m2 BKN
16:26 11.1 °F /  -11.6 °C 4.7 °F /  -15.2 °C 30.13 in /  1020.2 hPa NW 8.0 mph /  12.9 km/h 8.0 mph /  12.9 km/h 75 % 0.00 in /  0 mm 11.0 W/m2 BKN
16:30 11.0 °F /  -11.7 °C 4.6 °F /  -15.2 °C 30.13 in /  1020.2 hPa West 5.8 mph /  9.3 km/h 5.8 mph /  9.3 km/h 75 % 0.00 in /  0 mm 7.0 W/m2 BKN
16:31 10.9 °F /  -11.7 °C 4.5 °F /  -15.3 °C 30.13 in /  1020.2 hPa WNW 11.5 mph /  18.5 km/h 11.5 mph /  18.5 km/h 75 % 0.00 in /  0 mm 7.0 W/m2 SCT
16:36 10.8 °F /  -11.8 °C 4.7 °F /  -15.2 °C 30.13 in /  1020.2 hPa WNW 10.4 mph /  16.7 km/h 10.4 mph /  16.7 km/h 76 % 0.00 in /  0 mm 0.0 W/m2 SCT
16:37 10.8 °F /  -11.8 °C 4.7 °F /  -15.2 °C 30.13 in /  1020.2 hPa WNW 10.4 mph /  16.7 km/h 10.4 mph /  16.7 km/h 76 % 0.00 in /  0 mm 0.0 W/m2 SCT
16:42 10.6 °F /  -11.9 °C 4.2 °F /  -15.4 °C 30.13 in /  1020.2 hPa NW 11.5 mph /  18.5 km/h 11.5 mph /  18.5 km/h 75 % 0.00 in /  0 mm 0.0 W/m2 SCT
16:43 10.5 °F /  -11.9 °C 4.4 °F /  -15.3 °C 30.13 in /  1020.2 hPa WNW 9.2 mph /  14.8 km/h 9.2 mph /  14.8 km/h 76 % 0.00 in /  0 mm 0.0 W/m2 SCT
16:47 10.4 °F /  -12 °C 4.3 °F /  -15.4 °C 30.14 in /  1020.5 hPa West 6.9 mph /  11.1 km/h 6.9 mph /  11.1 km/h 76 % 0.00 in /  0 mm 0.0 W/m2 CLR
16:48 10.4 °F /  -12 °C 4.3 °F /  -15.4 °C 30.14 in /  1020.5 hPa WNW 11.5 mph /  18.5 km/h 11.5 mph /  18.5 km/h 76 % 0.00 in /  0 mm 0.0 W/m2 CLR
16:53 10.3 °F /  -12.1 °C 4.5 °F /  -15.3 °C 30.14 in /  1020.5 hPa West 9.2 mph /  14.8 km/h 9.2 mph /  14.8 km/h 77 % 0.00 in /  0 mm 0.0 W/m2 CLR
16:55 10.3 °F /  -12.1 °C 4.5 °F /  -15.3 °C 30.14 in /  1020.5 hPa West 10.4 mph /  16.7 km/h 10.4 mph /  16.7 km/h 77 % 0.00 in /  0 mm 0.0 W/m2 CLR
17:00 10.1 °F /  -12.2 °C 4.0 °F /  -15.6 °C 30.14 in /  1020.5 hPa WNW 8.1 mph /  13 km/h 8.1 mph /  13 km/h 76 % 0.00 in /  0 mm 0.0 W/m2 CLR
17:01 10.0 °F /  -12.2 °C 3.9 °F /  -15.6 °C 30.14 in /  1020.5 hPa West 9.2 mph /  14.8 km/h 9.2 mph /  14.8 km/h 76 % 0.00 in /  0 mm 0.0 W/m2 SCT
17:06 9.9 °F /  -12.3 °C 4.1 °F /  -15.5 °C 30.14 in /  1020.5 hPa West 8.1 mph /  13 km/h 8.1 mph /  13 km/h 77 % 0.00 in /  0 mm 0.0 W/m2 SCT
17:11 9.6 °F /  -12.4 °C 3.8 °F /  -15.7 °C 30.14 in /  1020.5 hPa NW 6.9 mph /  11.1 km/h 6.9 mph /  11.1 km/h 77 % 0.00 in /  0 mm 0.0 W/m2 SCT
17:14 9.5 °F /  -12.5 °C 3.7 °F /  -15.7 °C 30.14 in /  1020.5 hPa WNW 12.0 mph /  19.3 km/h 12.0 mph /  19.3 km/h 77 % 0.00 in /  0 mm 0.0 W/m2 SCT
17:17 9.5 °F /  -12.5 °C 3.7 °F /  -15.7 °C 30.14 in /  1020.5 hPa WNW 9.2 mph /  14.8 km/h 9.2 mph /  14.8 km/h 77 % 0.00 in /  0 mm 0.0 W/m2 SCT
17:22 9.4 °F /  -12.6 °C 3.6 °F /  -15.8 °C 30.15 in /  1020.9 hPa WNW 8.1 mph /  13 km/h 8.1 mph /  13 km/h 77 % 0.00 in /  0 mm 0.0 W/m2 SCT
17:24 9.4 °F /  -12.6 °C 3.6 °F /  -15.8 °C 30.15 in /  1020.9 hPa WNW 9.2 mph /  14.8 km/h 9.2 mph /  14.8 km/h 77 % 0.00 in /  0 mm 0.0 W/m2 SCT
17:29 9.4 °F /  -12.6 °C 3.6 °F /  -15.8 °C 30.15 in /  1020.9 hPa WNW 11.5 mph /  18.5 km/h 11.5 mph /  18.5 km/h 77 % 0.00 in /  0 mm 0.0 W/m2 SCT
17:30 9.3 °F /  -12.6 °C 3.5 °F /  -15.8 °C 30.15 in /  1020.9 hPa WNW 10.4 mph /  16.7 km/h 10.4 mph /  16.7 km/h 77 % 0.00 in /  0 mm 0.0 W/m2 SCT
17:34 9.2 °F /  -12.7 °C 3.4 °F /  -15.9 °C 30.15 in /  1020.9 hPa WNW 10.4 mph /  16.7 km/h 10.4 mph /  16.7 km/h 77 % 0.00 in /  0 mm 0.0 W/m2 SCT
17:36 9.1 °F /  -12.7 °C 3.4 °F /  -15.9 °C 30.15 in /  1020.9 hPa WNW 8.1 mph /  13 km/h 8.1 mph /  13 km/h 77 % 0.00 in /  0 mm 0.0 W/m2 SCT
17:39 9.0 °F /  -12.8 °C 3.3 °F /  -15.9 °C 30.15 in /  1020.9 hPa West 9.0 mph /  14.5 km/h 9.0 mph /  14.5 km/h 77 % 0.00 in /  0 mm 0.0 W/m2 SCT
17:44 9.0 °F /  -12.8 °C 3.5 °F /  -15.8 °C 30.15 in /  1020.9 hPa NW 8.1 mph /  13 km/h 8.1 mph /  13 km/h 78 % 0.00 in /  0 mm 0.0 W/m2 SCT
17:45 8.9 °F /  -12.8 °C 3.4 °F /  -15.9 °C 30.15 in /  1020.9 hPa WNW 8.1 mph /  13 km/h 8.1 mph /  13 km/h 78 % 0.00 in /  0 mm 0.0 W/m2 SCT
17:50 8.7 °F /  -12.9 °C 3.2 °F /  -16 °C 30.15 in /  1020.9 hPa WNW 6.9 mph /  11.1 km/h 6.9 mph /  11.1 km/h 78 % 0.00 in /  0 mm 0.0 W/m2 CLR
17:55 8.6 °F /  -13 °C 3.1 °F /  -16.1 °C 30.16 in /  1021.2 hPa West 8.1 mph /  13 km/h 8.1 mph /  13 km/h 78 % 0.00 in /  0 mm 0.0 W/m2 CLR
18:00 8.5 °F /  -13.1 °C 3.0 °F /  -16.1 °C 30.16 in /  1021.2 hPa WNW 11.5 mph /  18.5 km/h 11.5 mph /  18.5 km/h 78 % 0.00 in /  0 mm 0.0 W/m2 CLR
18:05 8.6 °F /  -13 °C 3.1 °F /  -16.1 °C 30.16 in /  1021.2 hPa NW 9.2 mph /  14.8 km/h 9.2 mph /  14.8 km/h 78 % 0.00 in /  0 mm 0.0 W/m2 CLR
18:06 8.6 °F /  -13 °C 3.1 °F /  -16.1 °C 30.17 in /  1021.6 hPa West 9.2 mph /  14.8 km/h 9.2 mph /  14.8 km/h 78 % 0.00 in /  0 mm 0.0 W/m2 CLR
18:11 8.6 °F /  -13 °C 3.1 °F /  -16.1 °C 30.16 in /  1021.2 hPa WNW 8.1 mph /  13 km/h 8.1 mph /  13 km/h 78 % 0.00 in /  0 mm 0.0 W/m2 CLR
18:16 8.5 °F /  -13.1 °C 3.0 °F /  -16.1 °C 30.17 in /  1021.6 hPa WNW 9.2 mph /  14.8 km/h 9.2 mph /  14.8 km/h 78 % 0.00 in /  0 mm 0.0 W/m2 CLR
18:19 8.4 °F /  -13.1 °C 2.9 °F /  -16.2 °C 30.17 in /  1021.6 hPa West 8.1 mph /  13 km/h 8.1 mph /  13 km/h 78 % 0.00 in /  0 mm 0.0 W/m2 CLR
18:21 8.4 °F /  -13.1 °C 2.9 °F /  -16.2 °C 30.17 in /  1021.6 hPa WNW 10.4 mph /  16.7 km/h 10.4 mph /  16.7 km/h 78 % 0.00 in /  0 mm 0.0 W/m2 CLR
18:26 8.2 °F /  -13.2 °C 2.5 °F /  -16.4 °C 30.17 in /  1021.6 hPa NW 10.4 mph /  16.7 km/h 10.4 mph /  16.7 km/h 77 % 0.00 in /  0 mm 0.0 W/m2 CLR
18:27 8.2 °F /  -13.2 °C 2.5 °F /  -16.4 °C 30.18 in /  1021.9 hPa NW 5.8 mph /  9.3 km/h 5.8 mph /  9.3 km/h 77 % 0.00 in /  0 mm 0.0 W/m2 CLR
18:32 8.1 °F /  -13.3 °C 2.7 °F /  -16.3 °C 30.18 in /  1021.9 hPa WNW 11.5 mph /  18.5 km/h 11.5 mph /  18.5 km/h 78 % 0.00 in /  0 mm 0.0 W/m2 CLR
18:33 8.0 °F /  -13.3 °C 2.6 °F /  -16.3 °C 30.18 in /  1021.9 hPa WNW 9.2 mph /  14.8 km/h 9.2 mph /  14.8 km/h 78 % 0.00 in /  0 mm 0.0 W/m2 CLR
18:38 7.9 °F /  -13.4 °C 2.5 °F /  -16.4 °C 30.18 in /  1021.9 hPa NW 10.4 mph /  16.7 km/h 10.4 mph /  16.7 km/h 78 % 0.00 in /  0 mm 0.0 W/m2 CLR
18:39 7.9 °F /  -13.4 °C 2.5 °F /  -16.4 °C 30.18 in /  1021.9 hPa NW 10.4 mph /  16.7 km/h 10.4 mph /  16.7 km/h 78 % 0.00 in /  0 mm 0.0 W/m2 CLR
18:44 7.8 °F /  -13.4 °C 2.1 °F /  -16.6 °C 30.18 in /  1021.9 hPa West 6.0 mph /  9.7 km/h 6.0 mph /  9.7 km/h 77 % 0.00 in /  0 mm 0.0 W/m2 CLR
18:49 7.6 °F /  -13.6 °C 2.2 °F /  -16.6 °C 30.18 in /  1021.9 hPa WNW 6.9 mph /  11.1 km/h 6.9 mph /  11.1 km/h 78 % 0.00 in /  0 mm 0.0 W/m2 CLR
18:51 7.5 °F /  -13.6 °C 1.8 °F /  -16.8 °C 30.18 in /  1021.9 hPa WNW 6.9 mph /  11.1 km/h 6.9 mph /  11.1 km/h 77 % 0.00 in /  0 mm 0.0 W/m2 CLR
18:54 7.4 °F /  -13.7 °C 1.7 °F /  -16.8 °C 30.18 in /  1021.9 hPa WNW 11.5 mph /  18.5 km/h 11.5 mph /  18.5 km/h 77 % 0.00 in /  0 mm 0.0 W/m2 CLR
18:56 7.4 °F /  -13.7 °C 2.0 °F /  -16.7 °C 30.18 in /  1021.9 hPa WNW 7.0 mph /  11.3 km/h 7.0 mph /  11.3 km/h 78 % 0.00 in /  0 mm 0.0 W/m2 CLR
19:01 7.2 °F /  -13.8 °C 1.5 °F /  -16.9 °C 30.18 in /  1021.9 hPa WNW 6.9 mph /  11.1 km/h 6.9 mph /  11.1 km/h 77 % 0.00 in /  0 mm 0.0 W/m2 SCT
19:02 7.2 °F /  -13.8 °C 1.5 °F /  -16.9 °C 30.18 in /  1021.9 hPa West 6.9 mph /  11.1 km/h 6.9 mph /  11.1 km/h 77 % 0.00 in /  0 mm 0.0 W/m2 SCT
19:03 7.2 °F /  -13.8 °C 1.5 °F /  -16.9 °C 30.18 in /  1021.9 hPa WNW 10.4 mph /  16.7 km/h 10.4 mph /  16.7 km/h 77 % 0.00 in /  0 mm 0.0 W/m2 SCT
19:08 7.1 °F /  -13.8 °C 1.7 °F /  -16.8 °C 30.19 in /  1022.2 hPa WNW 9.0 mph /  14.5 km/h 9.0 mph /  14.5 km/h 78 % 0.00 in /  0 mm 0.0 W/m2 SCT
19:09 7.1 °F /  -13.8 °C 1.4 °F /  -17 °C 30.19 in /  1022.2 hPa NW 10.4 mph /  16.7 km/h 10.4 mph /  16.7 km/h 77 % 0.00 in /  0 mm 0.0 W/m2 SCT
19:13 7.0 °F /  -13.9 °C 1.3 °F /  -17.1 °C 30.19 in /  1022.2 hPa WNW 10.4 mph /  16.7 km/h 10.4 mph /  16.7 km/h 77 % 0.00 in /  0 mm 0.0 W/m2 SCT
19:14 7.0 °F /  -13.9 °C 1.3 °F /  -17.1 °C 30.19 in /  1022.2 hPa WNW 9.0 mph /  14.5 km/h 9.0 mph /  14.5 km/h 77 % 0.00 in /  0 mm 0.0 W/m2 SCT
19:19 6.9 °F /  -13.9 °C 1.2 °F /  -17.1 °C 30.19 in /  1022.2 hPa WNW 8.1 mph /  13 km/h 8.1 mph /  13 km/h 77 % 0.00 in /  0 mm 0.0 W/m2 SCT
19:20 6.9 °F /  -13.9 °C 1.2 °F /  -17.1 °C 30.19 in /  1022.2 hPa NW 8.1 mph /  13 km/h 8.1 mph /  13 km/h 77 % 0.00 in /  0 mm 0.0 W/m2 SCT
19:25 6.7 °F /  -14.1 °C 1.0 °F /  -17.2 °C 30.19 in /  1022.2 hPa WNW 8.1 mph /  13 km/h 8.1 mph /  13 km/h 77 % 0.00 in /  0 mm 0.0 W/m2 SCT
19:30 6.5 °F /  -14.2 °C 0.8 °F /  -17.3 °C 30.19 in /  1022.2 hPa West 6.9 mph /  11.1 km/h 6.9 mph /  11.1 km/h 77 % 0.00 in /  0 mm 0.0 W/m2 SCT
19:31 6.5 °F /  -14.2 °C 0.8 °F /  -17.3 °C 30.19 in /  1022.2 hPa WNW 9.2 mph /  14.8 km/h 9.2 mph /  14.8 km/h 77 % 0.00 in /  0 mm 0.0 W/m2 SCT
19:36 6.3 °F /  -14.3 °C 0.6 °F /  -17.4 °C 30.19 in /  1022.2 hPa WNW 9.2 mph /  14.8 km/h 9.2 mph /  14.8 km/h 77 % 0.00 in /  0 mm 0.0 W/m2 SCT
19:41 6.3 °F /  -14.3 °C 0.6 °F /  -17.4 °C 30.19 in /  1022.2 hPa WNW 8.1 mph /  13 km/h 8.1 mph /  13 km/h 77 % 0.00 in /  0 mm 0.0 W/m2 SCT
19:46 6.2 °F /  -14.3 °C 0.5 °F /  -17.5 °C 30.19 in /  1022.2 hPa WNW 10.4 mph /  16.7 km/h 10.4 mph /  16.7 km/h 77 % 0.00 in /  0 mm 0.0 W/m2 CLR
19:47 6.2 °F /  -14.3 °C 0.5 °F /  -17.5 °C 30.19 in /  1022.2 hPa WNW 10.4 mph /  16.7 km/h 10.4 mph /  16.7 km/h 77 % 0.00 in /  0 mm 0.0 W/m2 CLR
19:48 6.2 °F /  -14.3 °C 0.5 °F /  -17.5 °C 30.19 in /  1022.2 hPa WNW 5.8 mph /  9.3 km/h 5.8 mph /  9.3 km/h 77 % 0.00 in /  0 mm 0.0 W/m2 CLR
19:53 6.0 °F /  -14.4 °C 0.3 °F /  -17.6 °C 30.20 in /  1022.6 hPa NW 9.2 mph /  14.8 km/h 9.2 mph /  14.8 km/h 77 % 0.00 in /  0 mm 0.0 W/m2 CLR
19:58 5.7 °F /  -14.6 °C 0.0 °F /  -17.8 °C 30.19 in /  1022.2 hPa WNW 9.2 mph /  14.8 km/h 9.2 mph /  14.8 km/h 77 % 0.00 in /  0 mm 0.0 W/m2 CLR
20:03 5.5 °F /  -14.7 °C -0.1 °F /  -17.8 °C 30.19 in /  1022.2 hPa WNW 9.0 mph /  14.5 km/h 9.0 mph /  14.5 km/h 77 % 0.01 in /  0.25 mm 0.0 W/m2 RA
20:04 5.5 °F /  -14.7 °C -0.1 °F /  -17.8 °C 30.19 in /  1022.2 hPa WNW 9.2 mph /  14.8 km/h 9.2 mph /  14.8 km/h 77 % 0.01 in /  0.25 mm 0.0 W/m2 RA
20:06 5.4 °F /  -14.8 °C -0.2 °F /  -17.9 °C 30.19 in /  1022.2 hPa West 9.0 mph /  14.5 km/h 9.0 mph /  14.5 km/h 77 % 0.01 in /  0.25 mm 0.0 W/m2 RA
20:09 5.3 °F /  -14.8 °C -0.3 °F /  -17.9 °C 30.19 in /  1022.2 hPa WNW 6.9 mph /  11.1 km/h 6.9 mph /  11.1 km/h 77 % 0.01 in /  0.25 mm 0.0 W/m2 RA
20:16 5.0 °F /  -15 °C -0.6 °F /  -18.1 °C 30.19 in /  1022.2 hPa WNW 9.2 mph /  14.8 km/h 9.2 mph /  14.8 km/h 77 % 0.01 in /  0.25 mm 0.0 W/m2 CLR
20:21 4.7 °F /  -15.2 °C -0.9 °F /  -18.3 °C 30.20 in /  1022.6 hPa WNW 6.9 mph /  11.1 km/h 6.9 mph /  11.1 km/h 77 % 0.02 in /  0.51 mm 0.0 W/m2 RA
20:22 4.6 °F /  -15.2 °C -0.8 °F /  -18.2 °C 30.20 in /  1022.6 hPa West 9.2 mph /  14.8 km/h 9.2 mph /  14.8 km/h 78 % 0.02 in /  0.51 mm 0.0 W/m2 RA
20:29 4.4 °F /  -15.3 °C -0.9 °F /  -18.3 °C 30.20 in /  1022.6 hPa WNW 4.6 mph /  7.4 km/h 4.6 mph /  7.4 km/h 78 % 0.02 in /  0.51 mm 0.0 W/m2 RA
20:31 4.4 °F /  -15.3 °C -0.9 °F /  -18.3 °C 30.19 in /  1022.2 hPa WNW 5.8 mph /  9.3 km/h 5.8 mph /  9.3 km/h 78 % 0.02 in /  0.51 mm 0.0 W/m2 CLR
20:35 4.4 °F /  -15.3 °C -0.9 °F /  -18.3 °C 30.19 in /  1022.2 hPa WNW 10.4 mph /  16.7 km/h 10.4 mph /  16.7 km/h 78 % 0.02 in /  0.51 mm 0.0 W/m2 CLR
20:36 4.4 °F /  -15.3 °C -0.9 °F /  -18.3 °C 30.19 in /  1022.2 hPa WNW 6.9 mph /  11.1 km/h 6.9 mph /  11.1 km/h 78 % 0.02 in /  0.51 mm 0.0 W/m2 CLR
20:41 4.4 °F /  -15.3 °C -0.9 °F /  -18.3 °C 30.20 in /  1022.6 hPa NW 9.2 mph /  14.8 km/h 9.2 mph /  14.8 km/h 78 % 0.02 in /  0.51 mm 0.0 W/m2 CLR
20:43 4.4 °F /  -15.3 °C -0.9 °F /  -18.3 °C 30.20 in /  1022.6 hPa West 9.2 mph /  14.8 km/h 9.2 mph /  14.8 km/h 78 % 0.02 in /  0.51 mm 0.0 W/m2 CLR
20:48 4.3 °F /  -15.4 °C -1.0 °F /  -18.3 °C 30.20 in /  1022.6 hPa WNW 9.2 mph /  14.8 km/h 9.2 mph /  14.8 km/h 78 % 0.02 in /  0.51 mm 0.0 W/m2 CLR
20:54 4.1 °F /  -15.5 °C -1.2 °F /  -18.4 °C 30.20 in /  1022.6 hPa WNW 9.2 mph /  14.8 km/h 9.2 mph /  14.8 km/h 78 % 0.03 in /  0.76 mm 0.0 W/m2 RA
20:58 4.1 °F /  -15.5 °C -1.2 °F /  -18.4 °C 30.20 in /  1022.6 hPa NW 9.2 mph /  14.8 km/h 9.2 mph /  14.8 km/h 78 % 0.03 in /  0.76 mm 0.0 W/m2 CLR
20:59 4.1 °F /  -15.5 °C -1.2 °F /  -18.4 °C 30.20 in /  1022.6 hPa WNW 8.1 mph /  13 km/h 8.1 mph /  13 km/h 78 % 0.03 in /  0.76 mm 0.0 W/m2 CLR
21:04 4.1 °F /  -15.5 °C -1.2 °F /  -18.4 °C 30.20 in /  1022.6 hPa WNW 8.1 mph /  13 km/h 8.1 mph /  13 km/h 78 % 0.02 in /  0.51 mm 0.0 W/m2 CLR
21:05 4.1 °F /  -15.5 °C -1.2 °F /  -18.4 °C 30.20 in /  1022.6 hPa NW 10.4 mph /  16.7 km/h 10.4 mph /  16.7 km/h 78 % 0.02 in /  0.51 mm 0.0 W/m2 CLR
21:10 4.1 °F /  -15.5 °C -1.2 °F /  -18.4 °C 30.20 in /  1022.6 hPa NW 6.9 mph /  11.1 km/h 6.9 mph /  11.1 km/h 78 % 0.02 in /  0.51 mm 0.0 W/m2 CLR
21:14 4.1 °F /  -15.5 °C -1.2 °F /  -18.4 °C 30.20 in /  1022.6 hPa NW 9.2 mph /  14.8 km/h 9.2 mph /  14.8 km/h 78 % 0.02 in /  0.51 mm 0.0 W/m2 CLR
21:16 4.0 °F /  -15.6 °C -1.3 °F /  -18.5 °C 30.20 in /  1022.6 hPa WNW 8.1 mph /  13 km/h 8.1 mph /  13 km/h 78 % 0.02 in /  0.51 mm 0.0 W/m2 CLR
21:21 4.0 °F /  -15.6 °C -1.3 °F /  -18.5 °C 30.20 in /  1022.6 hPa WNW 8.1 mph /  13 km/h 8.1 mph /  13 km/h 78 % 0.01 in /  0.25 mm 0.0 W/m2 CLR
21:26 4.0 °F /  -15.6 °C -1.6 °F /  -18.7 °C 30.20 in /  1022.6 hPa WNW 9.2 mph /  14.8 km/h 9.2 mph /  14.8 km/h 77 % 0.01 in /  0.25 mm 0.0 W/m2 CLR
21:27 4.0 °F /  -15.6 °C -1.3 °F /  -18.5 °C 30.20 in /  1022.6 hPa NW 8.1 mph /  13 km/h 8.1 mph /  13 km/h 78 % 0.01 in /  0.25 mm 0.0 W/m2 CLR
21:31 3.8 °F /  -15.7 °C -1.8 °F /  -18.8 °C 30.20 in /  1022.6 hPa WNW 9.2 mph /  14.8 km/h 9.2 mph /  14.8 km/h 77 % 0.01 in /  0.25 mm 0.0 W/m2 CLR
21:32 3.8 °F /  -15.7 °C -1.8 °F /  -18.8 °C 30.20 in /  1022.6 hPa WNW 9.2 mph /  14.8 km/h 9.2 mph /  14.8 km/h 77 % 0.01 in /  0.25 mm 0.0 W/m2 CLR
21:37 3.5 °F /  -15.8 °C -2.1 °F /  -18.9 °C 30.20 in /  1022.6 hPa WNW 9.2 mph /  14.8 km/h 9.2 mph /  14.8 km/h 77 % 0.01 in /  0.25 mm 0.0 W/m2 CLR
21:38 3.5 °F /  -15.8 °C -2.1 °F /  -18.9 °C 30.20 in /  1022.6 hPa WNW 9.2 mph /  14.8 km/h 9.2 mph /  14.8 km/h 77 % 0.01 in /  0.25 mm 0.0 W/m2 CLR
21:43 3.3 °F /  -15.9 °C -2.3 °F /  -19.1 °C 30.20 in /  1022.6 hPa West 9.2 mph /  14.8 km/h 9.2 mph /  14.8 km/h 77 % 0.01 in /  0.25 mm 0.0 W/m2 CLR
21:48 3.1 °F /  -16.1 °C -2.2 °F /  -19 °C 30.20 in /  1022.6 hPa WNW 9.2 mph /  14.8 km/h 9.2 mph /  14.8 km/h 78 % 0.00 in /  0 mm 0.0 W/m2 CLR
21:51 3.0 °F /  -16.1 °C -2.3 °F /  -19.1 °C 30.20 in /  1022.6 hPa WNW 10.4 mph /  16.7 km/h 10.4 mph /  16.7 km/h 78 % 0.00 in /  0 mm 0.0 W/m2 CLR
21:55 3.0 °F /  -16.1 °C -2.3 °F /  -19.1 °C 30.20 in /  1022.6 hPa WNW 10.4 mph /  16.7 km/h 10.4 mph /  16.7 km/h 78 % 0.00 in /  0 mm 0.0 W/m2 CLR
22:00 3.0 °F /  -16.1 °C -2.3 °F /  -19.1 °C 30.21 in /  1022.9 hPa NW 11.5 mph /  18.5 km/h 11.5 mph /  18.5 km/h 78 % 0.00 in /  0 mm 0.0 W/m2 CLR
22:01 3.0 °F /  -16.1 °C -2.3 °F /  -19.1 °C 30.20 in /  1022.6 hPa WNW 10.4 mph /  16.7 km/h 10.4 mph /  16.7 km/h 78 % 0.00 in /  0 mm 0.0 W/m2 CLR
22:05 3.0 °F /  -16.1 °C -2.3 °F /  -19.1 °C 30.20 in /  1022.6 hPa WNW 8.1 mph /  13 km/h 8.1 mph /  13 km/h 78 % 0.00 in /  0 mm 0.0 W/m2 CLR
22:06 3.0 °F /  -16.1 °C -2.3 °F /  -19.1 °C 30.20 in /  1022.6 hPa WNW 6.9 mph /  11.1 km/h 6.9 mph /  11.1 km/h 78 % 0.00 in /  0 mm 0.0 W/m2 CLR
22:10 2.9 °F /  -16.2 °C -2.4 °F /  -19.1 °C 30.20 in /  1022.6 hPa WNW 8.1 mph /  13 km/h 8.1 mph /  13 km/h 78 % 0.00 in /  0 mm 0.0 W/m2 CLR
22:11 2.8 °F /  -16.2 °C -2.5 °F /  -19.2 °C 30.20 in /  1022.6 hPa NW 9.2 mph /  14.8 km/h 9.2 mph /  14.8 km/h 78 % 0.00 in /  0 mm 0.0 W/m2 CLR
22:13 2.7 °F /  -16.3 °C -2.6 °F /  -19.2 °C 30.27 in /  1024.9 hPa West 8.1 mph /  13 km/h 8.1 mph /  13 km/h 78 % 0.00 in /  0 mm 0.0 W/m2 CLR
22:14 2.7 °F /  -16.3 °C -2.6 °F /  -19.2 °C 30.27 in /  1024.9 hPa WNW 8.1 mph /  13 km/h 8.1 mph /  13 km/h 78 % 0.00 in /  0 mm 0.0 W/m2 CLR
22:15 2.6 °F /  -16.3 °C -2.7 °F /  -19.3 °C 30.27 in /  1024.9 hPa WNW 10.4 mph /  16.7 km/h 10.4 mph /  16.7 km/h 78 % 0.00 in /  0 mm 0.0 W/m2 CLR
22:16 2.6 °F /  -16.3 °C -2.7 °F /  -19.3 °C 30.20 in /  1022.6 hPa WNW 10.4 mph /  16.7 km/h 10.4 mph /  16.7 km/h 78 % 0.00 in /  0 mm 0.0 W/m2 CLR
22:17 2.6 °F /  -16.3 °C -2.7 °F /  -19.3 °C 30.21 in /  1022.9 hPa WNW 8.1 mph /  13 km/h 8.1 mph /  13 km/h 78 % 0.00 in /  0 mm 0.0 W/m2 CLR
22:22 2.5 °F /  -16.4 °C -2.8 °F /  -19.3 °C 30.21 in /  1022.9 hPa WNW 5.0 mph /  8 km/h 5.0 mph /  8 km/h 78 % 0.00 in /  0 mm 0.0 W/m2 CLR
22:27 2.2 °F /  -16.6 °C -3.1 °F /  -19.5 °C 30.20 in /  1022.6 hPa NW 10.4 mph /  16.7 km/h 10.4 mph /  16.7 km/h 78 % 0.00 in /  0 mm 0.0 W/m2 CLR
22:29 2.1 °F /  -16.6 °C -3.2 °F /  -19.6 °C 30.20 in /  1022.6 hPa WNW 6.9 mph /  11.1 km/h 6.9 mph /  11.1 km/h 78 % 0.00 in /  0 mm 0.0 W/m2 CLR
22:34 2.1 °F /  -16.6 °C -3.2 °F /  -19.6 °C 30.20 in /  1022.6 hPa WNW 8.1 mph /  13 km/h 8.1 mph /  13 km/h 78 % 0.00 in /  0 mm 0.0 W/m2 CLR
22:37 2.0 °F /  -16.7 °C -3.3 °F /  -19.6 °C 30.20 in /  1022.6 hPa WNW 8.1 mph /  13 km/h 8.1 mph /  13 km/h 78 % 0.00 in /  0 mm 0.0 W/m2 CLR
22:40 2.1 °F /  -16.6 °C -3.2 °F /  -19.6 °C 30.27 in /  1024.9 hPa WNW 9.2 mph /  14.8 km/h 9.2 mph /  14.8 km/h 78 % 0.00 in /  0 mm 0.0 W/m2 CLR
22:42 2.1 °F /  -16.6 °C -2.9 °F /  -19.4 °C 30.27 in /  1024.9 hPa NW 10.4 mph /  16.7 km/h 10.4 mph /  16.7 km/h 79 % 0.00 in /  0 mm 0.0 W/m2 CLR
22:43 2.2 °F /  -16.6 °C -2.8 °F /  -19.3 °C 30.20 in /  1022.6 hPa West 9.0 mph /  14.5 km/h 9.0 mph /  14.5 km/h 79 % 0.00 in /  0 mm 0.0 W/m2 CLR
22:48 2.4 °F /  -16.4 °C -2.6 °F /  -19.2 °C 30.20 in /  1022.6 hPa WNW 11.5 mph /  18.5 km/h 11.5 mph /  18.5 km/h 79 % 0.00 in /  0 mm 0.0 W/m2 CLR
22:49 2.4 °F /  -16.4 °C -2.6 °F /  -19.2 °C 30.20 in /  1022.6 hPa NW 11.5 mph /  18.5 km/h 11.5 mph /  18.5 km/h 79 % 0.00 in /  0 mm 0.0 W/m2 CLR
22:50 2.4 °F /  -16.4 °C -2.6 °F /  -19.2 °C 30.27 in /  1024.9 hPa WNW 9.0 mph /  14.5 km/h 9.0 mph /  14.5 km/h 79 % 0.00 in /  0 mm 0.0 W/m2 CLR
22:52 2.4 °F /  -16.4 °C -2.9 °F /  -19.4 °C 30.27 in /  1024.9 hPa WNW 11.5 mph /  18.5 km/h 11.5 mph /  18.5 km/h 78 % 0.00 in /  0 mm 0.0 W/m2 CLR
22:53 2.4 °F /  -16.4 °C -2.9 °F /  -19.4 °C 30.20 in /  1022.6 hPa WNW 10.4 mph /  16.7 km/h 10.4 mph /  16.7 km/h 78 % 0.00 in /  0 mm 0.0 W/m2 CLR
22:54 2.4 °F /  -16.4 °C -2.9 °F /  -19.4 °C 30.20 in /  1022.6 hPa WNW 11.5 mph /  18.5 km/h 11.5 mph /  18.5 km/h 78 % 0.00 in /  0 mm 0.0 W/m2 CLR
22:57 2.4 °F /  -16.4 °C -2.9 °F /  -19.4 °C 30.20 in /  1022.6 hPa WNW 10.4 mph /  16.7 km/h 10.4 mph /  16.7 km/h 78 % 0.00 in /  0 mm 0.0 W/m2 CLR
23:01 2.4 °F /  -16.4 °C -2.9 °F /  -19.4 °C 30.20 in /  1022.6 hPa NW 11.5 mph /  18.5 km/h 11.5 mph /  18.5 km/h 78 % 0.00 in /  0 mm 0.0 W/m2 CLR
23:06 2.4 °F /  -16.4 °C -2.9 °F /  -19.4 °C 30.20 in /  1022.6 hPa WNW 11.0 mph /  17.7 km/h 11.0 mph /  17.7 km/h 78 % 0.00 in /  0 mm 0.0 W/m2 CLR
23:07 2.4 °F /  -16.4 °C -2.9 °F /  -19.4 °C 30.20 in /  1022.6 hPa NW 11.5 mph /  18.5 km/h 11.5 mph /  18.5 km/h 78 % 0.00 in /  0 mm 0.0 W/m2 CLR
23:13 2.3 °F /  -16.5 °C -3.0 °F /  -19.4 °C 30.20 in /  1022.6 hPa NW 9.2 mph /  14.8 km/h 9.2 mph /  14.8 km/h 78 % 0.00 in /  0 mm 0.0 W/m2 CLR
23:16 2.2 °F /  -16.6 °C -3.1 °F /  -19.5 °C 30.20 in /  1022.6 hPa NW 10.4 mph /  16.7 km/h 10.4 mph /  16.7 km/h 78 % 0.00 in /  0 mm 0.0 W/m2 CLR
23:19 2.2 °F /  -16.6 °C -3.1 °F /  -19.5 °C 30.20 in /  1022.6 hPa WNW 12.0 mph /  19.3 km/h 12.0 mph /  19.3 km/h 78 % 0.00 in /  0 mm 0.0 W/m2 CLR
23:24 2.0 °F /  -16.7 °C -3.3 °F /  -19.6 °C 30.20 in /  1022.6 hPa WNW 11.5 mph /  18.5 km/h 11.5 mph /  18.5 km/h 78 % 0.00 in /  0 mm 0.0 W/m2 CLR
23:25 2.0 °F /  -16.7 °C -3.3 °F /  -19.6 °C 30.20 in /  1022.6 hPa WNW 11.5 mph /  18.5 km/h 11.5 mph /  18.5 km/h 78 % 0.00 in /  0 mm 0.0 W/m2 CLR
23:31 1.9 °F /  -16.7 °C -3.4 °F /  -19.7 °C 30.20 in /  1022.6 hPa WNW 10.0 mph /  16.1 km/h 10.0 mph /  16.1 km/h 78 % 0.00 in /  0 mm 0.0 W/m2 CLR
23:33 1.9 °F /  -16.7 °C -3.4 °F /  -19.7 °C 30.20 in /  1022.6 hPa WNW 12.7 mph /  20.4 km/h 12.7 mph /  20.4 km/h 78 % 0.00 in /  0 mm 0.0 W/m2 CLR
23:34 1.9 °F /  -16.7 °C -3.4 °F /  -19.7 °C 30.27 in /  1024.9 hPa WNW 9.2 mph /  14.8 km/h 9.2 mph /  14.8 km/h 78 % 0.00 in /  0 mm 0.0 W/m2 CLR
23:38 1.8 °F /  -16.8 °C -3.5 °F /  -19.7 °C 30.20 in /  1022.6 hPa WNW 11.5 mph /  18.5 km/h 11.5 mph /  18.5 km/h 78 % 0.00 in /  0 mm 0.0 W/m2 CLR
23:39 1.8 °F /  -16.8 °C -3.5 °F /  -19.7 °C 30.20 in /  1022.6 hPa West 12.7 mph /  20.4 km/h 12.7 mph /  20.4 km/h 78 % 0.00 in /  0 mm 0.0 W/m2 CLR
23:44 1.8 °F /  -16.8 °C -3.5 °F /  -19.7 °C 30.20 in /  1022.6 hPa NW 11.5 mph /  18.5 km/h 11.5 mph /  18.5 km/h 78 % 0.00 in /  0 mm 0.0 W/m2 CLR
23:45 1.8 °F /  -16.8 °C -3.5 °F /  -19.7 °C 30.20 in /  1022.6 hPa West 11.5 mph /  18.5 km/h 11.5 mph /  18.5 km/h 78 % 0.00 in /  0 mm 0.0 W/m2 CLR
23:50 1.7 °F /  -16.8 °C -3.6 °F /  -19.8 °C 30.20 in /  1022.6 hPa NW 11.5 mph /  18.5 km/h 11.5 mph /  18.5 km/h 78 % 0.00 in /  0 mm 0.0 W/m2 CLR
23:53 1.7 °F /  -16.8 °C -3.6 °F /  -19.8 °C 30.20 in /  1022.6 hPa West 11.5 mph /  18.5 km/h 11.5 mph /  18.5 km/h 78 % 0.00 in /  0 mm 0.0 W/m2 CLR
23:58 1.5 °F /  -16.9 °C -3.8 °F /  -19.9 °C 30.20 in /  1022.6 hPa WNW 11.5 mph /  18.5 km/h 11.5 mph /  18.5 km/h 78 % 0.00 in /  0 mm 0.0 W/m2 CLR
23:59 1.4 °F /  -17 °C -3.9 °F /  -19.9 °C 30.20 in /  1022.6 hPa WNW 9.2 mph /  14.8 km/h 9.2 mph /  14.8 km/h 78 % 0.00 in /  0 mm 0.0 W/m2 CLR
Bourbonnais, Illinois, USA
Compliments of Weather Underground - 4.25 mb